Observation data for Menard on 01/20/2019      Previous  Date  Next       Current Mesonet Observations  Soil Data  Daily Summary Page  Observations in Plain Language
KMD1 200600Z 21000KT M02/M03 A3036 RMK A01 T10181033  RH  090%=      5-min Rain = 0
KMD1 200601Z 21001KT M02/M03 A3035 RMK A01 T10171033  RH  089%=      5-min Rain = 0
KMD1 200602Z 20002KT M02/M03 A3035 RMK A01 T10181034  RH  089%=      5-min Rain = 0
KMD1 200603Z 20002KT M02/M03 A3035 RMK A01 T10181034  RH  089%=      5-min Rain = 0
KMD1 200604Z 20003KT M02/M03 A3035 RMK A01 T10191034  RH  089%=      5-min Rain = 0
KMD1 200605Z 20003KT M02/M03 A3035 RMK A01 T10191034  RH  090%=      5-min Rain = 0
KMD1 200606Z 21003KT M02/M03 A3035 RMK A01 T10181033  RH  090%=      5-min Rain = 0
KMD1 200607Z 21002KT M02/M03 A3035 RMK A01 T10181032  RH  090%=      5-min Rain = 0
KMD1 200608Z 21002KT M02/M03 A3035 RMK A01 T10181032  RH  090%=      5-min Rain = 0
KMD1 200609Z 21002KT M02/M03 A3035 RMK A01 T10171032  RH  090%=      5-min Rain = 0
KMD1 200610Z 21002KT M02/M03 A3035 RMK A01 T10171032  RH  090%=      5-min Rain = 0
KMD1 200611Z 23002KT M02/M03 A3035 RMK A01 T10171032  RH  090%=      5-min Rain = 0
KMD1 200612Z 24002KT M02/M03 A3035 RMK A01 T10181033  RH  090%=      5-min Rain = 0
KMD1 200613Z 23002KT M02/M03 A3035 RMK A01 T10181033  RH  090%=      5-min Rain = 0
KMD1 200614Z 23002KT M02/M03 A3035 RMK A01 T10191034  RH  090%=      5-min Rain = 0
KMD1 200615Z 24002KT M02/M03 A3035 RMK A01 T10201034  RH  090%=      5-min Rain = 0
KMD1 200616Z 26002KT M02/M04 A3035 RMK A01 T10211036  RH  089%=      5-min Rain = 0
KMD1 200617Z 26002KT M02/M04 A3035 RMK A01 T10221037  RH  089%=      5-min Rain = 0
KMD1 200618Z 26001KT M02/M04 A3035 RMK A01 T10221037  RH  090%=      5-min Rain = 0
KMD1 200619Z 26001KT M02/M04 A3035 RMK A01 T10221036  RH  090%=      5-min Rain = 0
KMD1 200620Z 21001KT M02/M04 A3035 RMK A01 T10221036  RH  090%=      5-min Rain = 0
KMD1 200621Z 21001KT M02/M03 A3035 RMK A01 T10211034  RH  091%=      5-min Rain = 0
KMD1 200622Z 29000KT M02/M03 A3035 RMK A01 T10201034  RH  091%=      5-min Rain = 0
KMD1 200623Z 29001KT M02/M04 A3035 RMK A01 T10211035  RH  090%=      5-min Rain = 0
KMD1 200624Z 27001KT M02/M04 A3035 RMK A01 T10221037  RH  089%=      5-min Rain = 0
KMD1 200625Z 26001KT M03/M04 A3035 RMK A01 T10251041  RH  088%=      5-min Rain = 0
KMD1 200626Z 26001KT M03/M04 A3035 RMK A01 T10261042  RH  089%=      5-min Rain = 0
KMD1 200627Z 25001KT M03/M04 A3035 RMK A01 T10261040  RH  090%=      5-min Rain = 0
KMD1 200628Z 24002KT M03/M04 A3035 RMK A01 T10251039  RH  091%=      5-min Rain = 0
KMD1 200629Z 28001KT M03/M04 A3035 RMK A01 T10251038  RH  091%=      5-min Rain = 0
KMD1 200630Z 00000KT M03/M04 A3035 RMK A01 T10251038  RH  091%=      5-min Rain = 0
KMD1 200631Z 25001KT M03/M04 A3035 RMK A01 T10251038  RH  091%=      5-min Rain = 0
KMD1 200632Z 25001KT M03/M04 A3035 RMK A01 T10251038  RH  091%=      5-min Rain = 0
KMD1 200633Z 25001KT M03/M04 A3035 RMK A01 T10251038  RH  091%=      5-min Rain = 0
KMD1 200634Z 26001KT M03/M04 A3035 RMK A01 T10251038  RH  091%=      5-min Rain = 0
KMD1 200635Z 30001KT M03/M04 A3036 RMK A01 T10251037  RH  091%=      5-min Rain = 0
KMD1 200636Z 29002KT M03/M04 A3036 RMK A01 T10251037  RH  091%=      5-min Rain = 0
KMD1 200637Z 28003KT M03/M04 A3036 RMK A01 T10251037  RH  091%=      5-min Rain = 0
KMD1 200638Z 27002KT M02/M04 A3036 RMK A01 T10241036  RH  092%=      5-min Rain = 0
KMD1 200639Z 27003KT M02/M04 A3036 RMK A01 T10231035  RH  092%=      5-min Rain = 0
KMD1 200640Z 27003KT M02/M04 A3035 RMK A01 T10231036  RH  091%=      5-min Rain = 0
KMD1 200641Z 26003KT M02/M04 A3035 RMK A01 T10231036  RH  091%=      5-min Rain = 0
KMD1 200642Z 26003KT M02/M04 A3036 RMK A01 T10241037  RH  091%=      5-min Rain = 0
KMD1 200643Z 26004KT M02/M04 A3036 RMK A01 T10231037  RH  090%=      5-min Rain = 0
KMD1 200644Z 26003KT M02/M04 A3036 RMK A01 T10231036  RH  090%=      5-min Rain = 0
KMD1 200645Z 26003KT M02/M04 A3037 RMK A01 T10221035  RH  091%=      5-min Rain = 0
KMD1 200646Z 26003KT M02/M04 A3037 RMK A01 T10211035  RH  090%=      5-min Rain = 0
KMD1 200647Z 25002KT M02/M04 A3036 RMK A01 T10211035  RH  090%=      5-min Rain = 0
KMD1 200648Z 25001KT M02/M04 A3036 RMK A01 T10191035  RH  089%=      5-min Rain = 0
KMD1 200649Z 26001KT M02/M04 A3037 RMK A01 T10201036  RH  089%=      5-min Rain = 0
KMD1 200650Z 30001KT M02/M04 A3037 RMK A01 T10221040  RH  088%=      5-min Rain = 0
KMD1 200651Z 31001KT M02/M04 A3037 RMK A01 T10241042  RH  088%=      5-min Rain = 0
KMD1 200652Z 32001KT M02/M04 A3037 RMK A01 T10241041  RH  088%=      5-min Rain = 0
KMD1 200653Z 36001KT M02/M04 A3037 RMK A01 T10241040  RH  089%=      5-min Rain = 0
KMD1 200654Z 00001KT M02/M04 A3037 RMK A01 T10241040  RH  089%=      5-min Rain = 0
KMD1 200655Z 02002KT M02/M04 A3037 RMK A01 T10241039  RH  089%=      5-min Rain = 0
KMD1 200656Z 02002KT M02/M04 A3037 RMK A01 T10241040  RH  089%=      5-min Rain = 0
KMD1 200657Z 03002KT M03/M04 A3037 RMK A01 T10261042  RH  089%=      5-min Rain = 0
KMD1 200658Z 03003KT M03/M04 A3037 RMK A01 T10281043  RH  090%=      5-min Rain = 0
KMD1 200659Z 02003KT M03/M04 A3036 RMK A01 T10291043  RH  090%=      5-min Rain = 0
KMD1 200700Z 02003KT M03/M04 A3036 RMK A01 T10301043  RH  091%=      5-min Rain = 0
KMD1 200701Z 01003KT M03/M04 A3036 RMK A01 T10311044  RH  091%=      5-min Rain = 0
KMD1 200702Z 01004KT M03/M04 A3036 RMK A01 T10321043  RH  092%=      5-min Rain = 0
KMD1 200703Z 01004KT M03/M04 A3036 RMK A01 T10321043  RH  092%=      5-min Rain = 0
KMD1 200704Z 01004KT M03/M04 A3036 RMK A01 T10321043  RH  092%=      5-min Rain = 0
KMD1 200705Z 01003KT M03/M04 A3036 RMK A01 T10321042  RH  093%=      5-min Rain = 0
KMD1 200706Z 01004KT M03/M04 A3036 RMK A01 T10321042  RH  093%=      5-min Rain = 0
KMD1 200707Z 01004KT M03/M04 A3036 RMK A01 T10311041  RH  093%=      5-min Rain = 0
KMD1 200708Z 01004KT M03/M04 A3036 RMK A01 T10301040  RH  093%=      5-min Rain = 0
KMD1 200709Z 01004KT M03/M04 A3036 RMK A01 T10291039  RH  093%=      5-min Rain = 0
KMD1 200710Z 01004KT M03/M04 A3035 RMK A01 T10291040  RH  092%=      5-min Rain = 0
KMD1 200711Z 01003KT M03/M04 A3035 RMK A01 T10281040  RH  092%=      5-min Rain = 0
KMD1 200712Z 01003KT M03/M04 A3035 RMK A01 T10281040  RH  091%=      5-min Rain = 0
KMD1 200713Z 02003KT M03/M04 A3036 RMK A01 T10271040  RH  091%=      5-min Rain = 0
KMD1 200714Z 02002KT M03/M04 A3036 RMK A01 T10261040  RH  090%=      5-min Rain = 0
KMD1 200715Z 00002KT M03/M04 A3036 RMK A01 T10261041  RH  089%=      5-min Rain = 0
KMD1 200716Z 35002KT M03/M05 A3036 RMK A01 T10291047  RH  088%=      5-min Rain = 0
KMD1 200717Z 32001KT M03/M05 A3036 RMK A01 T10311049  RH  087%=      5-min Rain = 0
KMD1 200718Z 34001KT M03/M05 A3036 RMK A01 T10321049  RH  088%=      5-min Rain = 0
KMD1 200719Z 34001KT M03/M05 A3036 RMK A01 T10321048  RH  089%=      5-min Rain = 0
KMD1 200720Z 32001KT M03/M05 A3036 RMK A01 T10321048  RH  089%=      5-min Rain = 0
KMD1 200721Z 31002KT M03/M05 A3036 RMK A01 T10331049  RH  089%=      5-min Rain = 0
KMD1 200722Z 31002KT M03/M05 A3036 RMK A01 T10341050  RH  089%=      5-min Rain = 0
KMD1 200723Z 30002KT M04/M05 A3036 RMK A01 T10351050  RH  089%=      5-min Rain = 0
KMD1 200724Z 29002KT M04/M05 A3036 RMK A01 T10361052  RH  089%=      5-min Rain = 0
KMD1 200725Z 28002KT M04/M05 A3036 RMK A01 T10381052  RH  090%=      5-min Rain = 0
KMD1 200726Z 26002KT M04/M05 A3036 RMK A01 T10381052  RH  091%=      5-min Rain = 0
KMD1 200727Z 24003KT M04/M05 A3035 RMK A01 T10391050  RH  092%=      5-min Rain = 0
KMD1 200728Z 23003KT M04/M05 A3035 RMK A01 T10381049  RH  092%=      5-min Rain = 0
KMD1 200729Z 22003KT M04/M05 A3035 RMK A01 T10371048  RH  093%=      5-min Rain = 0
KMD1 200730Z 20003KT M04/M05 A3036 RMK A01 T10371047  RH  093%=      5-min Rain = 0
KMD1 200731Z 20002KT M04/M05 A3036 RMK A01 T10361045  RH  093%=      5-min Rain = 0
KMD1 200732Z 20002KT M04/M04 A3036 RMK A01 T10361044  RH  094%=      5-min Rain = 0
KMD1 200733Z 19002KT M04/M05 A3036 RMK A01 T10361045  RH  094%=      5-min Rain = 0
KMD1 200734Z 19002KT M04/M04 A3036 RMK A01 T10351044  RH  094%=      5-min Rain = 0
KMD1 200735Z 20002KT M04/M04 A3036 RMK A01 T10351044  RH  094%=      5-min Rain = 0
KMD1 200736Z 21001KT M04/M04 A3036 RMK A01 T10351044  RH  094%=      5-min Rain = 0
KMD1 200737Z 23001KT M04/M04 A3036 RMK A01 T10351043  RH  094%=      5-min Rain = 0
KMD1 200738Z 25001KT M04/M04 A3036 RMK A01 T10351043  RH  094%=      5-min Rain = 0
KMD1 200739Z 25002KT M04/M04 A3036 RMK A01 T10351043  RH  094%=      5-min Rain = 0
KMD1 200740Z 25003KT M03/M04 A3036 RMK A01 T10341042  RH  094%=      5-min Rain = 0
KMD1 200741Z 26003KT M04/M04 A3036 RMK A01 T10351043  RH  094%=      5-min Rain = 0
KMD1 200742Z 26003KT M04/M04 A3036 RMK A01 T10351043  RH  094%=      5-min Rain = 0
KMD1 200743Z 26003KT M04/M04 A3036 RMK A01 T10361044  RH  094%=      5-min Rain = 0
KMD1 200744Z 26002KT M04/M05 A3036 RMK A01 T10361045  RH  094%=      5-min Rain = 0
KMD1 200745Z 27002KT M04/M05 A3036 RMK A01 T10361045  RH  094%=      5-min Rain = 0
KMD1 200746Z 26002KT M04/M05 A3036 RMK A01 T10361045  RH  094%=      5-min Rain = 0
KMD1 200747Z 28001KT M04/M04 A3036 RMK A01 T10361044  RH  094%=      5-min Rain = 0
KMD1 200748Z 29000KT M04/M04 A3036 RMK A01 T10361044  RH  094%=      5-min Rain = 0
KMD1 200749Z 35000KT M04/M05 A3036 RMK A01 T10371045  RH  094%=      5-min Rain = 0
KMD1 200750Z 35001KT M04/M05 A3036 RMK A01 T10371045  RH  094%=      5-min Rain = 0
KMD1 200751Z 35001KT M04/M04 A3036 RMK A01 T10361043  RH  095%=      5-min Rain = 0
KMD1 200752Z 35001KT M03/M04 A3036 RMK A01 T10331040  RH  095%=      5-min Rain = 0
KMD1 200753Z 35001KT M03/M04 A3036 RMK A01 T10321038  RH  096%=      5-min Rain = 0
KMD1 200754Z 36002KT M03/M04 A3036 RMK A01 T10301036  RH  096%=      5-min Rain = 0
KMD1 200755Z 02002KT M03/M04 A3036 RMK A01 T10301037  RH  095%=      5-min Rain = 0
KMD1 200756Z 02003KT M03/M04 A3036 RMK A01 T10311039  RH  094%=      5-min Rain = 0
KMD1 200757Z 02003KT M03/M04 A3036 RMK A01 T10331043  RH  093%=      5-min Rain = 0
KMD1 200758Z 02004KT M03/M04 A3036 RMK A01 T10341044  RH  093%=      5-min Rain = 0
KMD1 200759Z 02004KT M03/M04 A3036 RMK A01 T10341044  RH  093%=      5-min Rain = 0
KMD1 200800Z 01004KT M04/M04 A3036 RMK A01 T10351044  RH  093%=      5-min Rain = 0
KMD1 200801Z 01004KT M04/M04 A3036 RMK A01 T10351044  RH  093%=      5-min Rain = 0
KMD1 200802Z 02004KT M03/M04 A3036 RMK A01 T10341043  RH  093%=      5-min Rain = 0
KMD1 200803Z 02005KT M03/M04 A3036 RMK A01 T10341043  RH  093%=      5-min Rain = 0
KMD1 200804Z 02005KT M03/M04 A3036 RMK A01 T10341044  RH  093%=      5-min Rain = 0
KMD1 200805Z 01005KT M03/M04 A3036 RMK A01 T10341044  RH  093%=      5-min Rain = 0
KMD1 200806Z 00005KT M03/M04 A3036 RMK A01 T10341044  RH  093%=      5-min Rain = 0
KMD1 200807Z 35005KT M03/M04 A3037 RMK A01 T10341044  RH  093%=      5-min Rain = 0
KMD1 200808Z 34005KT M03/M05 A3037 RMK A01 T10341045  RH  092%=      5-min Rain = 0
KMD1 200809Z 34004KT M03/M05 A3037 RMK A01 T10341045  RH  092%=      5-min Rain = 0
KMD1 200810Z 35004KT M03/M04 A3036 RMK A01 T10331044  RH  092%=      5-min Rain = 0
KMD1 200811Z 35003KT M03/M04 A3036 RMK A01 T10331044  RH  092%=      5-min Rain = 0
KMD1 200812Z 00003KT M03/M04 A3036 RMK A01 T10321043  RH  092%=      5-min Rain = 0
KMD1 200813Z 00004KT M03/M04 A3036 RMK A01 T10311042  RH  092%=      5-min Rain = 0
KMD1 200814Z 36004KT M03/M04 A3036 RMK A01 T10301042  RH  092%=      5-min Rain = 0
KMD1 200815Z 36004KT M03/M04 A3036 RMK A01 T10301043  RH  091%=      5-min Rain = 0
KMD1 200816Z 35004KT M03/M04 A3036 RMK A01 T10301044  RH  090%=      5-min Rain = 0
KMD1 200817Z 34002KT M03/M05 A3036 RMK A01 T10311046  RH  089%=      5-min Rain = 0
KMD1 200818Z 25001KT M03/M05 A3036 RMK A01 T10331049  RH  089%=      5-min Rain = 0
KMD1 200819Z 25001KT M03/M05 A3036 RMK A01 T10331048  RH  090%=      5-min Rain = 0
KMD1 200820Z 24002KT M03/M05 A3036 RMK A01 T10331047  RH  090%=      5-min Rain = 0
KMD1 200821Z 24002KT M03/M05 A3036 RMK A01 T10331047  RH  090%=      5-min Rain = 0
KMD1 200822Z 25001KT M03/M05 A3036 RMK A01 T10341047  RH  091%=      5-min Rain = 0
KMD1 200823Z 23001KT M03/M05 A3036 RMK A01 T10341046  RH  091%=      5-min Rain = 0
KMD1 200824Z 23001KT M03/M05 A3036 RMK A01 T10331046  RH  091%=      5-min Rain = 0
KMD1 200825Z 22001KT M03/M05 A3036 RMK A01 T10331046  RH  091%=      5-min Rain = 0
KMD1 200826Z 22002KT M03/M05 A3036 RMK A01 T10331045  RH  091%=      5-min Rain = 0
KMD1 200827Z 22002KT M03/M05 A3036 RMK A01 T10331046  RH  091%=      5-min Rain = 0
KMD1 200828Z 22002KT M03/M05 A3036 RMK A01 T10331046  RH  091%=      5-min Rain = 0
KMD1 200829Z 22001KT M03/M05 A3036 RMK A01 T10341047  RH  091%=      5-min Rain = 0
KMD1 200830Z 22001KT M03/M05 A3036 RMK A01 T10341047  RH  091%=      5-min Rain = 0
KMD1 200831Z 21001KT M04/M05 A3036 RMK A01 T10351048  RH  091%=      5-min Rain = 0
KMD1 200832Z 21001KT M04/M05 A3036 RMK A01 T10361049  RH  091%=      5-min Rain = 0
KMD1 200833Z 21002KT M04/M05 A3035 RMK A01 T10361049  RH  091%=      5-min Rain = 0
KMD1 200834Z 21002KT M04/M05 A3035 RMK A01 T10361049  RH  091%=      5-min Rain = 0
KMD1 200835Z 22002KT M04/M05 A3036 RMK A01 T10371049  RH  091%=      5-min Rain = 0
KMD1 200836Z 22002KT M04/M05 A3036 RMK A01 T10371049  RH  092%=      5-min Rain = 0
KMD1 200837Z 22003KT M04/M05 A3036 RMK A01 T10371049  RH  092%=      5-min Rain = 0
KMD1 200838Z 22003KT M04/M05 A3036 RMK A01 T10381048  RH  092%=      5-min Rain = 0
KMD1 200839Z 23003KT M04/M05 A3036 RMK A01 T10371048  RH  092%=      5-min Rain = 0
KMD1 200840Z 23002KT M04/M05 A3036 RMK A01 T10381048  RH  093%=      5-min Rain = 0
KMD1 200841Z 24002KT M04/M05 A3036 RMK A01 T10371047  RH  093%=      5-min Rain = 0
KMD1 200842Z 24001KT M04/M05 A3036 RMK A01 T10371047  RH  093%=      5-min Rain = 0
KMD1 200843Z 26001KT M04/M05 A3036 RMK A01 T10381048  RH  093%=      5-min Rain = 0
KMD1 200844Z 27000KT M04/M05 A3036 RMK A01 T10401050  RH  093%=      5-min Rain = 0
KMD1 200845Z 00000KT M04/M05 A3036 RMK A01 T10401050  RH  093%=      5-min Rain = 0
KMD1 200846Z 35000KT M04/M05 A3036 RMK A01 T10401049  RH  093%=      5-min Rain = 0
KMD1 200847Z 36001KT M04/M05 A3036 RMK A01 T10391048  RH  094%=      5-min Rain = 0
KMD1 200848Z 01001KT M04/M05 A3036 RMK A01 T10381046  RH  094%=      5-min Rain = 0
KMD1 200849Z 02001KT M04/M05 A3036 RMK A01 T10371045  RH  095%=      5-min Rain = 0
KMD1 200850Z 02001KT M04/M05 A3036 RMK A01 T10371045  RH  094%=      5-min Rain = 0
KMD1 200851Z 02000KT M04/M05 A3036 RMK A01 T10391048  RH  093%=      5-min Rain = 0
KMD1 200852Z 02001KT M04/M05 A3036 RMK A01 T10391048  RH  094%=      5-min Rain = 0
KMD1 200853Z 02001KT M04/M05 A3036 RMK A01 T10381046  RH  094%=      5-min Rain = 0
KMD1 200854Z 02002KT M04/M05 A3036 RMK A01 T10381046  RH  094%=      5-min Rain = 0
KMD1 200855Z 03002KT M04/M05 A3036 RMK A01 T10371045  RH  094%=      5-min Rain = 0
KMD1 200856Z 03002KT M04/M05 A3036 RMK A01 T10371046  RH  094%=      5-min Rain = 0
KMD1 200857Z 02001KT M04/M05 A3036 RMK A01 T10371046  RH  094%=      5-min Rain = 0
KMD1 200858Z 03001KT M04/M05 A3036 RMK A01 T10371045  RH  094%=      5-min Rain = 0
KMD1 200859Z 04001KT M04/M05 A3036 RMK A01 T10371046  RH  094%=      5-min Rain = 0
KMD1 200900Z 04000KT M04/M05 A3036 RMK A01 T10371046  RH  094%=      5-min Rain = 0
KMD1 200901Z 00000KT M04/M05 A3036 RMK A01 T10371046  RH  094%=      5-min Rain = 0
KMD1 200902Z 00000KT M04/M05 A3036 RMK A01 T10371046  RH  094%=      5-min Rain = 0
KMD1 200903Z 00000KT M04/M05 A3036 RMK A01 T10371046  RH  094%=      5-min Rain = 0
KMD1 200904Z 00000KT M04/M05 A3037 RMK A01 T10371047  RH  093%=      5-min Rain = 0
KMD1 200905Z 00000KT M04/M05 A3037 RMK A01 T10371046  RH  093%=      5-min Rain = 0
KMD1 200906Z 20000KT M04/M05 A3036 RMK A01 T10371047  RH  093%=      5-min Rain = 0
KMD1 200907Z 20000KT M04/M05 A3036 RMK A01 T10371046  RH  093%=      5-min Rain = 0
KMD1 200908Z 00000KT M04/M05 A3036 RMK A01 T10371046  RH  093%=      5-min Rain = 0
KMD1 200909Z 19000KT M04/M05 A3036 RMK A01 T10361046  RH  093%=      5-min Rain = 0
KMD1 200910Z 19001KT M04/M05 A3036 RMK A01 T10371046  RH  093%=      5-min Rain = 0
KMD1 200911Z 18002KT M04/M05 A3036 RMK A01 T10371047  RH  093%=      5-min Rain = 0
KMD1 200912Z 19003KT M04/M05 A3036 RMK A01 T10381048  RH  093%=      5-min Rain = 0
KMD1 200913Z 19003KT M04/M05 A3036 RMK A01 T10381048  RH  093%=      5-min Rain = 0
KMD1 200914Z 19003KT M04/M05 A3036 RMK A01 T10381048  RH  093%=      5-min Rain = 0
KMD1 200915Z 18002KT M04/M05 A3036 RMK A01 T10391050  RH  093%=      5-min Rain = 0
KMD1 200916Z 17002KT M04/M05 A3036 RMK A01 T10411051  RH  093%=      5-min Rain = 0
KMD1 200917Z 15002KT M04/M05 A3036 RMK A01 T10421052  RH  093%=      5-min Rain = 0
KMD1 200918Z 15001KT M04/M05 A3035 RMK A01 T10431053  RH  093%=      5-min Rain = 0
KMD1 200919Z 13001KT M04/M05 A3035 RMK A01 T10431053  RH  093%=      5-min Rain = 0
KMD1 200920Z 10002KT M04/M05 A3035 RMK A01 T10441054  RH  093%=      5-min Rain = 0
KMD1 200921Z 08003KT M04/M05 A3035 RMK A01 T10441053  RH  093%=      5-min Rain = 0
KMD1 200922Z 08003KT M04/M05 A3035 RMK A01 T10431051  RH  094%=      5-min Rain = 0
KMD1 200923Z 07003KT M04/M05 A3035 RMK A01 T10421051  RH  094%=      5-min Rain = 0
KMD1 200924Z 07002KT M04/M05 A3035 RMK A01 T10421051  RH  094%=      5-min Rain = 0
KMD1 200925Z 07001KT M04/M05 A3035 RMK A01 T10431052  RH  094%=      5-min Rain = 0
KMD1 200926Z 07000KT M04/M05 A3036 RMK A01 T10431052  RH  094%=      5-min Rain = 0
KMD1 200927Z 00000KT M04/M05 A3036 RMK A01 T10431052  RH  094%=      5-min Rain = 0
KMD1 200928Z 00000KT M04/M05 A3036 RMK A01 T10431052  RH  094%=      5-min Rain = 0
KMD1 200929Z 00000KT M04/M05 A3035 RMK A01 T10431052  RH  094%=      5-min Rain = 0
KMD1 200930Z 06000KT M04/M05 A3035 RMK A01 T10431052  RH  094%=      5-min Rain = 0
KMD1 200931Z 05001KT M04/M05 A3035 RMK A01 T10431052  RH  094%=      5-min Rain = 0
KMD1 200932Z 04002KT M04/M05 A3035 RMK A01 T10431052  RH  094%=      5-min Rain = 0
KMD1 200933Z 04002KT M04/M05 A3035 RMK A01 T10431052  RH  094%=      5-min Rain = 0
KMD1 200934Z 04002KT M04/M05 A3035 RMK A01 T10431051  RH  094%=      5-min Rain = 0
KMD1 200935Z 04002KT M04/M05 A3035 RMK A01 T10421050  RH  094%=      5-min Rain = 0
KMD1 200936Z 03001KT M04/M05 A3035 RMK A01 T10401048  RH  094%=      5-min Rain = 0
KMD1 200937Z 03000KT M04/M05 A3035 RMK A01 T10401048  RH  094%=      5-min Rain = 0
KMD1 200938Z 35000KT M04/M05 A3035 RMK A01 T10401048  RH  094%=      5-min Rain = 0
KMD1 200939Z 33001KT M04/M05 A3035 RMK A01 T10401049  RH  094%=      5-min Rain = 0
KMD1 200940Z 32001KT M04/M05 A3035 RMK A01 T10411050  RH  093%=      5-min Rain = 0
KMD1 200941Z 31001KT M04/M05 A3035 RMK A01 T10411051  RH  093%=      5-min Rain = 0
KMD1 200942Z 29001KT M04/M05 A3035 RMK A01 T10421051  RH  093%=      5-min Rain = 0
KMD1 200943Z 27002KT M04/M05 A3035 RMK A01 T10421051  RH  093%=      5-min Rain = 0
KMD1 200944Z 28001KT M04/M05 A3035 RMK A01 T10431052  RH  093%=      5-min Rain = 0
KMD1 200945Z 29001KT M04/M05 A3035 RMK A01 T10431053  RH  093%=      5-min Rain = 0
KMD1 200946Z 29001KT M04/M05 A3035 RMK A01 T10431052  RH  094%=      5-min Rain = 0
KMD1 200947Z 28001KT M04/M05 A3035 RMK A01 T10431052  RH  094%=      5-min Rain = 0
KMD1 200948Z 27001KT M04/M05 A3035 RMK A01 T10431052  RH  094%=      5-min Rain = 0
KMD1 200949Z 26002KT M04/M05 A3035 RMK A01 T10431052  RH  094%=      5-min Rain = 0
KMD1 200950Z 27001KT M04/M05 A3035 RMK A01 T10431051  RH  094%=      5-min Rain = 0
KMD1 200951Z 27001KT M04/M05 A3036 RMK A01 T10421050  RH  094%=      5-min Rain = 0
KMD1 200952Z 26002KT M04/M05 A3036 RMK A01 T10421051  RH  094%=      5-min Rain = 0
KMD1 200953Z 24004KT M04/M05 A3035 RMK A01 T10431051  RH  094%=      5-min Rain = 0
KMD1 200954Z 24004KT M04/M05 A3035 RMK A01 T10431051  RH  094%=      5-min Rain = 0
KMD1 200955Z 25003KT M04/M05 A3035 RMK A01 T10431051  RH  094%=      5-min Rain = 0
KMD1 200956Z 25003KT M04/M05 A3035 RMK A01 T10431051  RH  094%=      5-min Rain = 0
KMD1 200957Z 25003KT M04/M05 A3035 RMK A01 T10431051  RH  094%=      5-min Rain = 0
KMD1 200958Z 25004KT M04/M05 A3035 RMK A01 T10421051  RH  094%=      5-min Rain = 0
KMD1 200959Z 26005KT M04/M05 A3035 RMK A01 T10421050  RH  094%=      5-min Rain = 0
KMD1 201000Z 25005KT M04/M05 A3036 RMK A01 T10411050  RH  094%=      5-min Rain = 0
KMD1 201001Z 25005KT M04/M05 A3036 RMK A01 T10421051  RH  094%=      5-min Rain = 0
KMD1 201002Z 25005KT M04/M05 A3036 RMK A01 T10421051  RH  093%=      5-min Rain = 0
KMD1 201003Z 25005KT M04/M05 A3036 RMK A01 T10431052  RH  093%=      5-min Rain = 0
KMD1 201004Z 25006KT M04/M05 A3036 RMK A01 T10441053  RH  093%=      5-min Rain = 0
KMD1 201005Z 25006KT M04/M05 A3036 RMK A01 T10441053  RH  094%=      5-min Rain = 0
KMD1 201006Z 25006KT M05/M05 A3036 RMK A01 T10451053  RH  094%=      5-min Rain = 0
KMD1 201007Z 25006KT M05/M05 A3036 RMK A01 T10451053  RH  094%=      5-min Rain = 0
KMD1 201008Z 25006KT M05/M05 A3036 RMK A01 T10451053  RH  094%=      5-min Rain = 0
KMD1 201009Z 25006KT M05/M05 A3036 RMK A01 T10451053  RH  094%=      5-min Rain = 0
KMD1 201010Z 25005KT M05/M05 A3036 RMK A01 T10451053  RH  094%=      5-min Rain = 0
KMD1 201011Z 26004KT M05/M05 A3036 RMK A01 T10451053  RH  094%=      5-min Rain = 0
KMD1 201012Z 26004KT M05/M05 A3036 RMK A01 T10461053  RH  095%=      5-min Rain = 0
KMD1 201013Z 26005KT M05/M05 A3036 RMK A01 T10461053  RH  095%=      5-min Rain = 0
KMD1 201014Z 26005KT M05/M05 A3036 RMK A01 T10461053  RH  095%=      5-min Rain = 0
KMD1 201015Z 26005KT M05/M05 A3036 RMK A01 T10461052  RH  095%=      5-min Rain = 0
KMD1 201016Z 26005KT M05/M05 A3037 RMK A01 T10451052  RH  095%=      5-min Rain = 0
KMD1 201017Z 26006KT M05/M05 A3037 RMK A01 T10451051  RH  095%=      5-min Rain = 0
KMD1 201018Z 25006KT M04/M05 A3037 RMK A01 T10441050  RH  095%=      5-min Rain = 0
KMD1 201019Z 25005KT M04/M05 A3036 RMK A01 T10431050  RH  095%=      5-min Rain = 0
KMD1 201020Z 25004KT M04/M05 A3036 RMK A01 T10431050  RH  095%=      5-min Rain = 0
KMD1 201021Z 25004KT M04/M05 A3036 RMK A01 T10431050  RH  095%=      5-min Rain = 0
KMD1 201022Z 25005KT M04/M05 A3036 RMK A01 T10431050  RH  095%=      5-min Rain = 0
KMD1 201023Z 25005KT M04/M05 A3036 RMK A01 T10431050  RH  095%=      5-min Rain = 0
KMD1 201024Z 24006KT M04/M05 A3036 RMK A01 T10431050  RH  095%=      5-min Rain = 0
KMD1 201025Z 24006KT M04/M05 A3036 RMK A01 T10431050  RH  095%=      5-min Rain = 0
KMD1 201026Z 24005KT M04/M05 A3036 RMK A01 T10431050  RH  095%=      5-min Rain = 0
KMD1 201027Z 24005KT M04/M05 A3036 RMK A01 T10421050  RH  094%=      5-min Rain = 0
KMD1 201028Z 24005KT M04/M05 A3036 RMK A01 T10431051  RH  094%=      5-min Rain = 0
KMD1 201029Z 24005KT M04/M05 A3036 RMK A01 T10431051  RH  094%=      5-min Rain = 0
KMD1 201030Z 25006KT M04/M05 A3036 RMK A01 T10431051  RH  094%=      5-min Rain = 0
KMD1 201031Z 25006KT M04/M05 A3036 RMK A01 T10431051  RH  094%=      5-min Rain = 0
KMD1 201032Z 24006KT M04/M05 A3036 RMK A01 T10421050  RH  094%=      5-min Rain = 0
KMD1 201033Z 24006KT M04/M05 A3036 RMK A01 T10421050  RH  094%=      5-min Rain = 0
KMD1 201034Z 24005KT M04/M05 A3036 RMK A01 T10421050  RH  094%=      5-min Rain = 0
KMD1 201035Z 24005KT M04/M05 A3036 RMK A01 T10421050  RH  094%=      5-min Rain = 0
KMD1 201036Z 25005KT M04/M05 A3036 RMK A01 T10421050  RH  094%=      5-min Rain = 0
KMD1 201037Z 25004KT M04/M05 A3036 RMK A01 T10421050  RH  094%=      5-min Rain = 0
KMD1 201038Z 25004KT M04/M05 A3036 RMK A01 T10421050  RH  094%=      5-min Rain = 0
KMD1 201039Z 25003KT M04/M05 A3036 RMK A01 T10421050  RH  094%=      5-min Rain = 0
KMD1 201040Z 25003KT M04/M05 A3036 RMK A01 T10421050  RH  094%=      5-min Rain = 0
KMD1 201041Z 25003KT M04/M05 A3036 RMK A01 T10421050  RH  094%=      5-min Rain = 0
KMD1 201042Z 25004KT M04/M05 A3036 RMK A01 T10421050  RH  094%=      5-min Rain = 0
KMD1 201043Z 25005KT M04/M05 A3036 RMK A01 T10411049  RH  094%=      5-min Rain = 0
KMD1 201044Z 25005KT M04/M05 A3036 RMK A01 T10411049  RH  094%=      5-min Rain = 0
KMD1 201045Z 25004KT M04/M05 A3037 RMK A01 T10411049  RH  094%=      5-min Rain = 0
KMD1 201046Z 25003KT M04/M05 A3037 RMK A01 T10401048  RH  094%=      5-min Rain = 0
KMD1 201047Z 25003KT M04/M05 A3037 RMK A01 T10401048  RH  094%=      5-min Rain = 0
KMD1 201048Z 26003KT M04/M05 A3037 RMK A01 T10401049  RH  094%=      5-min Rain = 0
KMD1 201049Z 26002KT M04/M05 A3037 RMK A01 T10401049  RH  094%=      5-min Rain = 0
KMD1 201050Z 25003KT M04/M05 A3037 RMK A01 T10401049  RH  094%=      5-min Rain = 0
KMD1 201051Z 25003KT M04/M05 A3037 RMK A01 T10411049  RH  094%=      5-min Rain = 0
KMD1 201052Z 25002KT M04/M05 A3037 RMK A01 T10411049  RH  094%=      5-min Rain = 0
KMD1 201053Z 25002KT M04/M05 A3037 RMK A01 T10411050  RH  094%=      5-min Rain = 0
KMD1 201054Z 25001KT M04/M05 A3037 RMK A01 T10421050  RH  094%=      5-min Rain = 0
KMD1 201055Z 25002KT M04/M05 A3037 RMK A01 T10421051  RH  094%=      5-min Rain = 0
KMD1 201056Z 25002KT M04/M05 A3037 RMK A01 T10421051  RH  094%=      5-min Rain = 0
KMD1 201057Z 24001KT M04/M05 A3037 RMK A01 T10421051  RH  094%=      5-min Rain = 0
KMD1 201058Z 24001KT M04/M05 A3037 RMK A01 T10421051  RH  094%=      5-min Rain = 0
KMD1 201059Z 24000KT M04/M05 A3037 RMK A01 T10421050  RH  094%=      5-min Rain = 0
KMD1 201100Z 27001KT M04/M05 A3037 RMK A01 T10421051  RH  094%=      5-min Rain = 0
KMD1 201101Z 26001KT M04/M05 A3037 RMK A01 T10421051  RH  094%=      5-min Rain = 0
KMD1 201102Z 26001KT M04/M05 A3037 RMK A01 T10421051  RH  094%=      5-min Rain = 0
KMD1 201103Z 28001KT M04/M05 A3037 RMK A01 T10421050  RH  094%=      5-min Rain = 0
KMD1 201104Z 29001KT M04/M05 A3037 RMK A01 T10421050  RH  094%=      5-min Rain = 0
KMD1 201105Z 29000KT M04/M05 A3037 RMK A01 T10421050  RH  094%=      5-min Rain = 0
KMD1 201106Z 00000KT M04/M05 A3037 RMK A01 T10421051  RH  094%=      5-min Rain = 0
KMD1 201107Z 00000KT M04/M05 A3037 RMK A01 T10421051  RH  094%=      5-min Rain = 0
KMD1 201108Z 00000KT M04/M05 A3037 RMK A01 T10431051  RH  094%=      5-min Rain = 0
KMD1 201109Z 27000KT M04/M05 A3037 RMK A01 T10421051  RH  094%=      5-min Rain = 0
KMD1 201110Z 27001KT M04/M05 A3037 RMK A01 T10431051  RH  094%=      5-min Rain = 0
KMD1 201111Z 27000KT M04/M05 A3037 RMK A01 T10431051  RH  094%=      5-min Rain = 0
KMD1 201112Z 00000KT M04/M05 A3037 RMK A01 T10431051  RH  094%=      5-min Rain = 0
KMD1 201113Z 00000KT M04/M05 A3037 RMK A01 T10431051  RH  094%=      5-min Rain = 0
KMD1 201114Z 00000KT M04/M05 A3037 RMK A01 T10431051  RH  094%=      5-min Rain = 0
KMD1 201115Z 00000KT M04/M05 A3037 RMK A01 T10431051  RH  094%=      5-min Rain = 0
KMD1 201116Z 00000KT M04/M05 A3037 RMK A01 T10431050  RH  095%=      5-min Rain = 0
KMD1 201117Z 00000KT M04/M05 A3037 RMK A01 T10431050  RH  094%=      5-min Rain = 0
KMD1 201118Z 00000KT M04/M05 A3037 RMK A01 T10421050  RH  095%=      5-min Rain = 0
KMD1 201119Z 00000KT M04/M05 A3037 RMK A01 T10421050  RH  094%=      5-min Rain = 0
KMD1 201120Z 00000KT M04/M05 A3037 RMK A01 T10421049  RH  095%=      5-min Rain = 0
KMD1 201121Z 00000KT M04/M05 A3037 RMK A01 T10421049  RH  094%=      5-min Rain = 0
KMD1 201122Z 00000KT M04/M05 A3037 RMK A01 T10411049  RH  094%=      5-min Rain = 0
KMD1 201123Z 00000KT M04/M05 A3037 RMK A01 T10411049  RH  094%=      5-min Rain = 0
KMD1 201124Z 00000KT M04/M05 A3037 RMK A01 T10411049  RH  094%=      5-min Rain = 0
KMD1 201125Z 18001KT M04/M05 A3037 RMK A01 T10411049  RH  094%=      5-min Rain = 0
KMD1 201126Z 18001KT M04/M05 A3037 RMK A01 T10411049  RH  094%=      5-min Rain = 0
KMD1 201127Z 18001KT M04/M05 A3037 RMK A01 T10401049  RH  094%=      5-min Rain = 0
KMD1 201128Z 18000KT M04/M05 A3037 RMK A01 T10401049  RH  094%=      5-min Rain = 0
KMD1 201129Z 18000KT M04/M05 A3037 RMK A01 T10401049  RH  094%=      5-min Rain = 0
KMD1 201130Z 00000KT M04/M05 A3036 RMK A01 T10411049  RH  094%=      5-min Rain = 0
KMD1 201131Z 08000KT M04/M05 A3036 RMK A01 T10401049  RH  094%=      5-min Rain = 0
KMD1 201132Z 07001KT M04/M05 A3036 RMK A01 T10391048  RH  094%=      5-min Rain = 0
KMD1 201133Z 07000KT M04/M05 A3036 RMK A01 T10391048  RH  094%=      5-min Rain = 0
KMD1 201134Z 00000KT M04/M05 A3036 RMK A01 T10381048  RH  093%=      5-min Rain = 0
KMD1 201135Z 00000KT M04/M05 A3036 RMK A01 T10391049  RH  093%=      5-min Rain = 0
KMD1 201136Z 00000KT M04/M05 A3036 RMK A01 T10401051  RH  092%=      5-min Rain = 0
KMD1 201137Z 00000KT M04/M05 A3036 RMK A01 T10411052  RH  092%=      5-min Rain = 0
KMD1 201138Z 00000KT M04/M05 A3036 RMK A01 T10411053  RH  092%=      5-min Rain = 0
KMD1 201139Z 00000KT M04/M06 A3036 RMK A01 T10431055  RH  091%=      5-min Rain = 0
KMD1 201140Z 00000KT M04/M06 A3036 RMK A01 T10441057  RH  091%=      5-min Rain = 0
KMD1 201141Z 00000KT M05/M06 A3036 RMK A01 T10451056  RH  092%=      5-min Rain = 0
KMD1 201142Z 00000KT M04/M06 A3036 RMK A01 T10441055  RH  092%=      5-min Rain = 0
KMD1 201143Z 03000KT M04/M05 A3036 RMK A01 T10441054  RH  093%=      5-min Rain = 0
KMD1 201144Z 01001KT M04/M05 A3036 RMK A01 T10441054  RH  093%=      5-min Rain = 0
KMD1 201145Z 00001KT M04/M05 A3036 RMK A01 T10441054  RH  093%=      5-min Rain = 0
KMD1 201146Z 00001KT M05/M06 A3036 RMK A01 T10451056  RH  092%=      5-min Rain = 0
KMD1 201147Z 00001KT M05/M06 A3036 RMK A01 T10451056  RH  092%=      5-min Rain = 0
KMD1 201148Z 34000KT M05/M06 A3036 RMK A01 T10461057  RH  092%=      5-min Rain = 0
KMD1 201149Z 31000KT M05/M06 A3036 RMK A01 T10461057  RH  092%=      5-min Rain = 0
KMD1 201150Z 29000KT M05/M06 A3036 RMK A01 T10451056  RH  092%=      5-min Rain = 0
KMD1 201151Z 30000KT M05/M06 A3036 RMK A01 T10451056  RH  092%=      5-min Rain = 0
KMD1 201152Z 31000KT M05/M06 A3036 RMK A01 T10451057  RH  092%=      5-min Rain = 0
KMD1 201153Z 00000KT M05/M06 A3036 RMK A01 T10461058  RH  092%=      5-min Rain = 0
KMD1 201154Z 26001KT M05/M06 A3036 RMK A01 T10461057  RH  092%=      5-min Rain = 0
KMD1 201155Z 26001KT M05/M06 A3036 RMK A01 T10461057  RH  093%=      5-min Rain = 0
KMD1 201156Z 26001KT M05/M06 A3037 RMK A01 T10461056  RH  093%=      5-min Rain = 0
KMD1 201157Z 26000KT M05/M06 A3036 RMK A01 T10471056  RH  093%=      5-min Rain = 0
KMD1 201158Z 00000KT M05/M06 A3036 RMK A01 T10471056  RH  093%=      5-min Rain = 0
KMD1 201159Z 00000KT M05/M06 A3036 RMK A01 T10471057  RH  093%=      5-min Rain = 0
KMD1 201200Z 00000KT M05/M06 A3036 RMK A01 T10491059  RH  092%=      5-min Rain = 0
KMD1 201201Z 00000KT M05/M06 A3036 RMK A01 T10501060  RH  092%=      5-min Rain = 0
KMD1 201202Z 26001KT M05/M06 A3036 RMK A01 T10501061  RH  092%=      5-min Rain = 0
KMD1 201203Z 26001KT M05/M06 A3036 RMK A01 T10511061  RH  093%=      5-min Rain = 0
KMD1 201204Z 26001KT M05/M06 A3036 RMK A01 T10501059  RH  094%=      5-min Rain = 0
KMD1 201205Z 26000KT M05/M06 A3036 RMK A01 T10491057  RH  094%=      5-min Rain = 0
KMD1 201206Z 00000KT M05/M06 A3036 RMK A01 T10481056  RH  094%=      5-min Rain = 0
KMD1 201207Z 00000KT M05/M06 A3036 RMK A01 T10481056  RH  094%=      5-min Rain = 0
KMD1 201208Z 00000KT M05/M06 A3035 RMK A01 T10481057  RH  094%=      5-min Rain = 0
KMD1 201209Z 26000KT M05/M06 A3035 RMK A01 T10491057  RH  094%=      5-min Rain = 0
KMD1 201210Z 26000KT M05/M06 A3035 RMK A01 T10491057  RH  094%=      5-min Rain = 0
KMD1 201211Z 00000KT M05/M06 A3035 RMK A01 T10491057  RH  094%=      5-min Rain = 0
KMD1 201212Z 01000KT M05/M06 A3035 RMK A01 T10491057  RH  094%=      5-min Rain = 0
KMD1 201213Z 01001KT M05/M06 A3035 RMK A01 T10501058  RH  094%=      5-min Rain = 0
KMD1 201214Z 02001KT M05/M06 A3035 RMK A01 T10501058  RH  094%=      5-min Rain = 0
KMD1 201215Z 02002KT M05/M06 A3035 RMK A01 T10501059  RH  094%=      5-min Rain = 0
KMD1 201216Z 02002KT M05/M06 A3035 RMK A01 T10501059  RH  094%=      5-min Rain = 0
KMD1 201217Z 02001KT M05/M06 A3035 RMK A01 T10501059  RH  094%=      5-min Rain = 0
KMD1 201218Z 02000KT M05/M06 A3035 RMK A01 T10511060  RH  093%=      5-min Rain = 0
KMD1 201219Z 00000KT M05/M06 A3035 RMK A01 T10521061  RH  093%=      5-min Rain = 0
KMD1 201220Z 02000KT M05/M06 A3035 RMK A01 T10521061  RH  093%=      5-min Rain = 0
KMD1 201221Z 02001KT M05/M06 A3035 RMK A01 T10521062  RH  093%=      5-min Rain = 0
KMD1 201222Z 02000KT M05/M06 A3035 RMK A01 T10531062  RH  093%=      5-min Rain = 0
KMD1 201223Z 00000KT M05/M06 A3035 RMK A01 T10531063  RH  093%=      5-min Rain = 0
KMD1 201224Z 00000KT M05/M06 A3035 RMK A01 T10541063  RH  093%=      5-min Rain = 0
KMD1 201225Z 00000KT M05/M06 A3035 RMK A01 T10531063  RH  093%=      5-min Rain = 0
KMD1 201226Z 00000KT M05/M06 A3035 RMK A01 T10531063  RH  093%=      5-min Rain = 0
KMD1 201227Z 02000KT M05/M06 A3035 RMK A01 T10531063  RH  093%=      5-min Rain = 0
KMD1 201228Z 02000KT M05/M06 A3035 RMK A01 T10531063  RH  093%=      5-min Rain = 0
KMD1 201229Z 00000KT M05/M06 A3035 RMK A01 T10531062  RH  094%=      5-min Rain = 0
KMD1 201230Z 00000KT M05/M06 A3035 RMK A01 T10531062  RH  094%=      5-min Rain = 0
KMD1 201231Z 02000KT M05/M06 A3035 RMK A01 T10531062  RH  094%=      5-min Rain = 0
KMD1 201232Z 35000KT M05/M06 A3035 RMK A01 T10531062  RH  094%=      5-min Rain = 0
KMD1 201233Z 22001KT M05/M06 A3035 RMK A01 T10531061  RH  094%=      5-min Rain = 0
KMD1 201234Z 23001KT M05/M06 A3035 RMK A01 T10531061  RH  094%=      5-min Rain = 0
KMD1 201235Z 23000KT M05/M06 A3035 RMK A01 T10531061  RH  094%=      5-min Rain = 0
KMD1 201236Z 00000KT M05/M06 A3035 RMK A01 T10531061  RH  094%=      5-min Rain = 0
KMD1 201237Z 00000KT M05/M06 A3035 RMK A01 T10531061  RH  094%=      5-min Rain = 0
KMD1 201238Z 00000KT M05/M06 A3035 RMK A01 T10531062  RH  094%=      5-min Rain = 0
KMD1 201239Z 23000KT M05/M06 A3035 RMK A01 T10541063  RH  093%=      5-min Rain = 0
KMD1 201240Z 00000KT M05/M06 A3035 RMK A01 T10541063  RH  093%=      5-min Rain = 0
KMD1 201241Z 00000KT M05/M06 A3035 RMK A01 T10541063  RH  093%=      5-min Rain = 0
KMD1 201242Z 00000KT M05/M06 A3035 RMK A01 T10541063  RH  093%=      5-min Rain = 0
KMD1 201243Z 00000KT M06/M06 A3035 RMK A01 T10551064  RH  094%=      5-min Rain = 0
KMD1 201244Z 00000KT M06/M06 A3035 RMK A01 T10551063  RH  094%=      5-min Rain = 0
KMD1 201245Z 00000KT M05/M06 A3035 RMK A01 T10541063  RH  094%=      5-min Rain = 0
KMD1 201246Z 00000KT M05/M06 A3035 RMK A01 T10541062  RH  094%=      5-min Rain = 0
KMD1 201247Z 00000KT M05/M06 A3035 RMK A01 T10531061  RH  094%=      5-min Rain = 0
KMD1 201248Z 01000KT M05/M06 A3035 RMK A01 T10541061  RH  094%=      5-min Rain = 0
KMD1 201249Z 01000KT M05/M06 A3035 RMK A01 T10531061  RH  094%=      5-min Rain = 0
KMD1 201250Z 00000KT M05/M06 A3035 RMK A01 T10531062  RH  094%=      5-min Rain = 0
KMD1 201251Z 00000KT M05/M06 A3035 RMK A01 T10541063  RH  094%=      5-min Rain = 0
KMD1 201252Z 01000KT M05/M06 A3035 RMK A01 T10541063  RH  094%=      5-min Rain = 0
KMD1 201253Z 02001KT M06/M06 A3035 RMK A01 T10551064  RH  093%=      5-min Rain = 0
KMD1 201254Z 02001KT M06/M06 A3035 RMK A01 T10551064  RH  093%=      5-min Rain = 0
KMD1 201255Z 01002KT M06/M06 A3035 RMK A01 T10551064  RH  093%=      5-min Rain = 0
KMD1 201256Z 36001KT M06/M07 A3035 RMK A01 T10551065  RH  093%=      5-min Rain = 0
KMD1 201257Z 35001KT M06/M07 A3035 RMK A01 T10551065  RH  093%=      5-min Rain = 0
KMD1 201258Z 35001KT M06/M07 A3035 RMK A01 T10551065  RH  093%=      5-min Rain = 0
KMD1 201259Z 36001KT M06/M07 A3035 RMK A01 T10551065  RH  093%=      5-min Rain = 0
KMD1 201300Z 00001KT M06/M07 A3035 RMK A01 T10551065  RH  093%=      5-min Rain = 0
KMD1 201301Z 00001KT M06/M07 A3035 RMK A01 T10561066  RH  093%=      5-min Rain = 0
KMD1 201302Z 00001KT M06/M07 A3035 RMK A01 T10561065  RH  093%=      5-min Rain = 0
KMD1 201303Z 01001KT M06/M07 A3035 RMK A01 T10561065  RH  093%=      5-min Rain = 0
KMD1 201304Z 01000KT M06/M07 A3035 RMK A01 T10551065  RH  093%=      5-min Rain = 0
KMD1 201305Z 04000KT M06/M07 A3036 RMK A01 T10561066  RH  093%=      5-min Rain = 0
KMD1 201306Z 03001KT M06/M07 A3036 RMK A01 T10561066  RH  093%=      5-min Rain = 0
KMD1 201307Z 02001KT M06/M07 A3036 RMK A01 T10561066  RH  093%=      5-min Rain = 0
KMD1 201308Z 01001KT M06/M07 A3036 RMK A01 T10561066  RH  093%=      5-min Rain = 0
KMD1 201309Z 01001KT M06/M07 A3036 RMK A01 T10561066  RH  092%=      5-min Rain = 0
KMD1 201310Z 36002KT M06/M07 A3036 RMK A01 T10561067  RH  092%=      5-min Rain = 0
KMD1 201311Z 35002KT M06/M07 A3036 RMK A01 T10561067  RH  092%=      5-min Rain = 0
KMD1 201312Z 34002KT M06/M07 A3036 RMK A01 T10561066  RH  092%=      5-min Rain = 0
KMD1 201313Z 34002KT M06/M07 A3036 RMK A01 T10561067  RH  092%=      5-min Rain = 0
KMD1 201314Z 36001KT M06/M07 A3036 RMK A01 T10561067  RH  092%=      5-min Rain = 0
KMD1 201315Z 36001KT M06/M07 A3036 RMK A01 T10561066  RH  092%=      5-min Rain = 0
KMD1 201316Z 00001KT M06/M07 A3036 RMK A01 T10561067  RH  092%=      5-min Rain = 0
KMD1 201317Z 00002KT M06/M07 A3036 RMK A01 T10561066  RH  092%=      5-min Rain = 0
KMD1 201318Z 00002KT M06/M07 A3037 RMK A01 T10561067  RH  092%=      5-min Rain = 0
KMD1 201319Z 01003KT M06/M07 A3037 RMK A01 T10561067  RH  092%=      5-min Rain = 0
KMD1 201320Z 01003KT M06/M07 A3037 RMK A01 T10561067  RH  092%=      5-min Rain = 0
KMD1 201321Z 00003KT M06/M07 A3037 RMK A01 T10561067  RH  092%=      5-min Rain = 0
KMD1 201322Z 00002KT M06/M07 A3037 RMK A01 T10561067  RH  092%=      5-min Rain = 0
KMD1 201323Z 00002KT M06/M07 A3036 RMK A01 T10561067  RH  092%=      5-min Rain = 0
KMD1 201324Z 02003KT M06/M07 A3036 RMK A01 T10571068  RH  092%=      5-min Rain = 0
KMD1 201325Z 02003KT M06/M07 A3036 RMK A01 T10571068  RH  092%=      5-min Rain = 0
KMD1 201326Z 01003KT M06/M07 A3036 RMK A01 T10571068  RH  092%=      5-min Rain = 0
KMD1 201327Z 01003KT M06/M07 A3037 RMK A01 T10571068  RH  092%=      5-min Rain = 0
KMD1 201328Z 01002KT M06/M07 A3037 RMK A01 T10571068  RH  092%=      5-min Rain = 0
KMD1 201329Z 01002KT M06/M07 A3037 RMK A01 T10571068  RH  092%=      5-min Rain = 0
KMD1 201330Z 01002KT M06/M07 A3036 RMK A01 T10571068  RH  092%=      5-min Rain = 0
KMD1 201331Z 01002KT M06/M07 A3037 RMK A01 T10571068  RH  092%=      5-min Rain = 0
KMD1 201332Z 35002KT M06/M07 A3037 RMK A01 T10571068  RH  092%=      5-min Rain = 0
KMD1 201333Z 33002KT M06/M07 A3037 RMK A01 T10571069  RH  092%=      5-min Rain = 0
KMD1 201334Z 32002KT M06/M07 A3036 RMK A01 T10571069  RH  092%=      5-min Rain = 0
KMD1 201335Z 33001KT M06/M07 A3036 RMK A01 T10571068  RH  092%=      5-min Rain = 0
KMD1 201336Z 34001KT M06/M07 A3036 RMK A01 T10571068  RH  092%=      5-min Rain = 0
KMD1 201337Z 33001KT M06/M07 A3036 RMK A01 T10571068  RH  092%=      5-min Rain = 0
KMD1 201338Z 31000KT M06/M07 A3036 RMK A01 T10571068  RH  092%=      5-min Rain = 0
KMD1 201339Z 28001KT M06/M07 A3036 RMK A01 T10571068  RH  092%=      5-min Rain = 0
KMD1 201340Z 28001KT M06/M07 A3036 RMK A01 T10581068  RH  092%=      5-min Rain = 0
KMD1 201341Z 28001KT M06/M07 A3036 RMK A01 T10571068  RH  092%=      5-min Rain = 0
KMD1 201342Z 27001KT M06/M07 A3036 RMK A01 T10571067  RH  092%=      5-min Rain = 0
KMD1 201343Z 26002KT M06/M07 A3036 RMK A01 T10561067  RH  092%=      5-min Rain = 0
KMD1 201344Z 25002KT M06/M07 A3036 RMK A01 T10551066  RH  093%=      5-min Rain = 0
KMD1 201345Z 25002KT M06/M07 A3036 RMK A01 T10551065  RH  093%=      5-min Rain = 0
KMD1 201346Z 25002KT M05/M06 A3036 RMK A01 T10541064  RH  093%=      5-min Rain = 0
KMD1 201347Z 25002KT M05/M06 A3036 RMK A01 T10531063  RH  093%=      5-min Rain = 0
KMD1 201348Z 25003KT M05/M06 A3036 RMK A01 T10531063  RH  093%=      5-min Rain = 0
KMD1 201349Z 24003KT M05/M06 A3036 RMK A01 T10521063  RH  092%=      5-min Rain = 0
KMD1 201350Z 24003KT M05/M06 A3035 RMK A01 T10531064  RH  092%=      5-min Rain = 0
KMD1 201351Z 24002KT M05/M06 A3035 RMK A01 T10531064  RH  092%=      5-min Rain = 0
KMD1 201352Z 24002KT M05/M06 A3035 RMK A01 T10531064  RH  092%=      5-min Rain = 0
KMD1 201353Z 24002KT M05/M07 A3035 RMK A01 T10541065  RH  092%=      5-min Rain = 0
KMD1 201354Z 24002KT M05/M06 A3035 RMK A01 T10531064  RH  092%=      5-min Rain = 0
KMD1 201355Z 24002KT M05/M06 A3035 RMK A01 T10531064  RH  092%=      5-min Rain = 0
KMD1 201356Z 24002KT M05/M06 A3035 RMK A01 T10531063  RH  092%=      5-min Rain = 0
KMD1 201357Z 24002KT M05/M06 A3035 RMK A01 T10521063  RH  092%=      5-min Rain = 0
KMD1 201358Z 25002KT M05/M06 A3035 RMK A01 T10521062  RH  092%=      5-min Rain = 0
KMD1 201359Z 25002KT M05/M06 A3035 RMK A01 T10521062  RH  092%=      5-min Rain = 0
KMD1 201400Z 25001KT M05/M06 A3035 RMK A01 T10511062  RH  092%=      5-min Rain = 0
KMD1 201401Z 26001KT M05/M06 A3036 RMK A01 T10511062  RH  092%=      5-min Rain = 0
KMD1 201402Z 27001KT M05/M06 A3036 RMK A01 T10511062  RH  092%=      5-min Rain = 0
KMD1 201403Z 27001KT M05/M06 A3036 RMK A01 T10501061  RH  092%=      5-min Rain = 0
KMD1 201404Z 27001KT M05/M06 A3036 RMK A01 T10491061  RH  092%=      5-min Rain = 0
KMD1 201405Z 26001KT M05/M06 A3036 RMK A01 T10491061  RH  092%=      5-min Rain = 0
KMD1 201406Z 26002KT M05/M06 A3036 RMK A01 T10491061  RH  091%=      5-min Rain = 0
KMD1 201407Z 26002KT M05/M06 A3036 RMK A01 T10491061  RH  091%=      5-min Rain = 0
KMD1 201408Z 26001KT M05/M06 A3036 RMK A01 T10481061  RH  091%=      5-min Rain = 0
KMD1 201409Z 26001KT M05/M06 A3036 RMK A01 T10471060  RH  091%=      5-min Rain = 0
KMD1 201410Z 26002KT M05/M06 A3035 RMK A01 T10471060  RH  091%=      5-min Rain = 0
KMD1 201411Z 26002KT M05/M06 A3035 RMK A01 T10461059  RH  091%=      5-min Rain = 0
KMD1 201412Z 26001KT M05/M06 A3035 RMK A01 T10461059  RH  090%=      5-min Rain = 0
KMD1 201413Z 25001KT M05/M06 A3035 RMK A01 T10451058  RH  090%=      5-min Rain = 0
KMD1 201414Z 25002KT M04/M06 A3035 RMK A01 T10441058  RH  090%=      5-min Rain = 0
KMD1 201415Z 25003KT M04/M06 A3035 RMK A01 T10441057  RH  090%=      5-min Rain = 0
KMD1 201416Z 25003KT M04/M06 A3035 RMK A01 T10431058  RH  090%=      5-min Rain = 0
KMD1 201417Z 25003KT M04/M06 A3035 RMK A01 T10441059  RH  089%=      5-min Rain = 0
KMD1 201418Z 24002KT M04/M06 A3035 RMK A01 T10431059  RH  089%=      5-min Rain = 0
KMD1 201419Z 25003KT M04/M06 A3035 RMK A01 T10431058  RH  089%=      5-min Rain = 0
KMD1 201420Z 24003KT M04/M06 A3035 RMK A01 T10421057  RH  089%=      5-min Rain = 0
KMD1 201421Z 24002KT M04/M06 A3035 RMK A01 T10411057  RH  089%=      5-min Rain = 0
KMD1 201422Z 25002KT M04/M06 A3035 RMK A01 T10411056  RH  089%=      5-min Rain = 0
KMD1 201423Z 25002KT M04/M05 A3035 RMK A01 T10401054  RH  090%=      5-min Rain = 0
KMD1 201424Z 25002KT M04/M05 A3035 RMK A01 T10391054  RH  090%=      5-min Rain = 0
KMD1 201425Z 26002KT M04/M05 A3035 RMK A01 T10391053  RH  090%=      5-min Rain = 0
KMD1 201426Z 26002KT M04/M05 A3035 RMK A01 T10391053  RH  090%=      5-min Rain = 0
KMD1 201427Z 25002KT M04/M05 A3035 RMK A01 T10381053  RH  090%=      5-min Rain = 0
KMD1 201428Z 25002KT M04/M05 A3035 RMK A01 T10391053  RH  090%=      5-min Rain = 0
KMD1 201429Z 25002KT M04/M05 A3035 RMK A01 T10381051  RH  090%=      5-min Rain = 0
KMD1 201430Z 25002KT M04/M05 A3035 RMK A01 T10371050  RH  091%=      5-min Rain = 0
KMD1 201431Z 24001KT M04/M05 A3035 RMK A01 T10371050  RH  090%=      5-min Rain = 0
KMD1 201432Z 25001KT M04/M05 A3035 RMK A01 T10361050  RH  090%=      5-min Rain = 0
KMD1 201433Z 24001KT M04/M05 A3035 RMK A01 T10361050  RH  090%=      5-min Rain = 0
KMD1 201434Z 25002KT M04/M05 A3035 RMK A01 T10361050  RH  090%=      5-min Rain = 0
KMD1 201435Z 24002KT M04/M05 A3035 RMK A01 T10351050  RH  090%=      5-min Rain = 0
KMD1 201436Z 24002KT M04/M05 A3035 RMK A01 T10351049  RH  090%=      5-min Rain = 0
KMD1 201437Z 24002KT M03/M05 A3035 RMK A01 T10341048  RH  090%=      5-min Rain = 0
KMD1 201438Z 23002KT M04/M05 A3035 RMK A01 T10351049  RH  090%=      5-min Rain = 0
KMD1 201439Z 24002KT M04/M05 A3035 RMK A01 T10351049  RH  090%=      5-min Rain = 0
KMD1 201440Z 26001KT M03/M05 A3035 RMK A01 T10341048  RH  091%=      5-min Rain = 0
KMD1 201441Z 25001KT M03/M05 A3035 RMK A01 T10341047  RH  091%=      5-min Rain = 0
KMD1 201442Z 24001KT M03/M05 A3035 RMK A01 T10341047  RH  090%=      5-min Rain = 0
KMD1 201443Z 24001KT M03/M05 A3035 RMK A01 T10331048  RH  090%=      5-min Rain = 0
KMD1 201444Z 24001KT M03/M05 A3035 RMK A01 T10331048  RH  090%=      5-min Rain = 0
KMD1 201445Z 24001KT M03/M05 A3035 RMK A01 T10331048  RH  089%=      5-min Rain = 0
KMD1 201446Z 25002KT M03/M05 A3035 RMK A01 T10321047  RH  089%=      5-min Rain = 0
KMD1 201447Z 23002KT M03/M05 A3035 RMK A01 T10321047  RH  089%=      5-min Rain = 0
KMD1 201448Z 24002KT M03/M05 A3035 RMK A01 T10311046  RH  089%=      5-min Rain = 0
KMD1 201449Z 24002KT M03/M05 A3035 RMK A01 T10301046  RH  089%=      5-min Rain = 0
KMD1 201450Z 24002KT M03/M05 A3035 RMK A01 T10301045  RH  089%=      5-min Rain = 0
KMD1 201451Z 24002KT M03/M04 A3035 RMK A01 T10291044  RH  089%=      5-min Rain = 0
KMD1 201452Z 24002KT M03/M04 A3035 RMK A01 T10291044  RH  089%=      5-min Rain = 0
KMD1 201453Z 24001KT M03/M04 A3035 RMK A01 T10281044  RH  089%=      5-min Rain = 0
KMD1 201454Z 25001KT M03/M04 A3035 RMK A01 T10281044  RH  089%=      5-min Rain = 0
KMD1 201455Z 25001KT M03/M04 A3035 RMK A01 T10271043  RH  089%=      5-min Rain = 0
KMD1 201456Z 24000KT M03/M04 A3035 RMK A01 T10261042  RH  089%=      5-min Rain = 0
KMD1 201457Z 00000KT M03/M04 A3035 RMK A01 T10251040  RH  089%=      5-min Rain = 0
KMD1 201458Z 22000KT M02/M04 A3035 RMK A01 T10231038  RH  089%=      5-min Rain = 0
KMD1 201459Z 25001KT M02/M04 A3035 RMK A01 T10231040  RH  088%=      5-min Rain = 0
KMD1 201500Z 25002KT M02/M04 A3035 RMK A01 T10231043  RH  086%=      5-min Rain = 0
KMD1 201501Z 25002KT M02/M04 A3035 RMK A01 T10231044  RH  086%=      5-min Rain = 0
KMD1 201502Z 25002KT M02/M04 A3035 RMK A01 T10231044  RH  086%=      5-min Rain = 0
KMD1 201503Z 26002KT M02/M04 A3035 RMK A01 T10231044  RH  086%=      5-min Rain = 0
KMD1 201504Z 26002KT M02/M04 A3035 RMK A01 T10211041  RH  086%=      5-min Rain = 0
KMD1 201505Z 27002KT M02/M04 A3035 RMK A01 T10211040  RH  086%=      5-min Rain = 0
KMD1 201506Z 26001KT M02/M04 A3035 RMK A01 T10191039  RH  086%=      5-min Rain = 0
KMD1 201507Z 26001KT M02/M04 A3035 RMK A01 T10191039  RH  086%=      5-min Rain = 0
KMD1 201508Z 28001KT M02/M04 A3035 RMK A01 T10181037  RH  087%=      5-min Rain = 0
KMD1 201509Z 29002KT M02/M04 A3035 RMK A01 T10171037  RH  086%=      5-min Rain = 0
KMD1 201510Z 28002KT M02/M04 A3035 RMK A01 T10171039  RH  085%=      5-min Rain = 0
KMD1 201511Z 28001KT M02/M04 A3035 RMK A01 T10171040  RH  084%=      5-min Rain = 0
KMD1 201512Z 28001KT M02/M04 A3035 RMK A01 T10151037  RH  085%=      5-min Rain = 0
KMD1 201513Z 26001KT M01/M04 A3035 RMK A01 T10141035  RH  086%=      5-min Rain = 0
KMD1 201514Z 24002KT M01/M04 A3035 RMK A01 T10131036  RH  084%=      5-min Rain = 0
KMD1 201515Z 24002KT M01/M04 A3035 RMK A01 T10131040  RH  082%=      5-min Rain = 0
KMD1 201516Z 25002KT M01/M04 A3035 RMK A01 T10131041  RH  081%=      5-min Rain = 0
KMD1 201517Z 26002KT M01/M04 A3035 RMK A01 T10121039  RH  082%=      5-min Rain = 0
KMD1 201518Z 25002KT M01/M04 A3035 RMK A01 T10111038  RH  082%=      5-min Rain = 0
KMD1 201519Z 25001KT M01/M04 A3035 RMK A01 T10101039  RH  081%=      5-min Rain = 0
KMD1 201520Z 24001KT M01/M04 A3035 RMK A01 T10091038  RH  081%=      5-min Rain = 0
KMD1 201521Z 25001KT M01/M04 A3035 RMK A01 T10071036  RH  081%=      5-min Rain = 0
KMD1 201522Z 25002KT M01/M04 A3035 RMK A01 T10061037  RH  080%=      5-min Rain = 0
KMD1 201523Z 25002KT M01/M04 A3035 RMK A01 T10061040  RH  078%=      5-min Rain = 0
KMD1 201524Z 24002KT M01/M04 A3035 RMK A01 T10051038  RH  078%=      5-min Rain = 0
KMD1 201525Z 25002KT M00/M04 A3035 RMK A01 T10031035  RH  079%=      5-min Rain = 0
KMD1 201526Z 24002KT M00/M03 A3035 RMK A01 T10021034  RH  079%=      5-min Rain = 0
KMD1 201527Z 25003KT M00/M03 A3035 RMK A01 T10021034  RH  079%=      5-min Rain = 0
KMD1 201528Z 24003KT M00/M03 A3035 RMK A01 T10011031  RH  080%=      5-min Rain = 0
KMD1 201529Z 25002KT M00/M03 A3035 RMK A01 T10011031  RH  080%=      5-min Rain = 0
KMD1 201530Z 26002KT M00/M03 A3035 RMK A01 T10011032  RH  079%=      5-min Rain = 0
KMD1 201531Z 25002KT 00/03 A3035 RMK A01 T00-00-32  RH  079%=      5-min Rain = 0
KMD1 201532Z 25001KT 00/03 A3035 RMK A01 T00-00-31  RH  080%=      5-min Rain = 0
KMD1 201533Z 25000KT 00/M03 A3035 RMK A01 T00011029  RH  080%=      5-min Rain = 0
KMD1 201534Z 24001KT 00/M03 A3035 RMK A01 T00031028  RH  079%=      5-min Rain = 0
KMD1 201535Z 21002KT 00/M03 A3035 RMK A01 T00041029  RH  078%=      5-min Rain = 0
KMD1 201536Z 21001KT 01/M03 A3035 RMK A01 T00051032  RH  076%=      5-min Rain = 0
KMD1 201537Z 21001KT 01/M03 A3035 RMK A01 T00051034  RH  075%=      5-min Rain = 0
KMD1 201538Z 24001KT 01/M03 A3035 RMK A01 T00071032  RH  075%=      5-min Rain = 0
KMD1 201539Z 25001KT 01/M03 A3035 RMK A01 T00091031  RH  074%=      5-min Rain = 0
KMD1 201540Z 23000KT 01/M03 A3035 RMK A01 T00101032  RH  073%=      5-min Rain = 0
KMD1 201541Z 24001KT 01/M03 A3035 RMK A01 T00111032  RH  073%=      5-min Rain = 0
KMD1 201542Z 25001KT 01/M03 A3035 RMK A01 T00121031  RH  073%=      5-min Rain = 0
KMD1 201543Z 24002KT 01/M03 A3035 RMK A01 T00131028  RH  074%=      5-min Rain = 0
KMD1 201544Z 24001KT 01/M03 A3035 RMK A01 T00141031  RH  072%=      5-min Rain = 0
KMD1 201545Z 21001KT 01/M03 A3035 RMK A01 T00131034  RH  071%=      5-min Rain = 0
KMD1 201546Z 21002KT 01/M03 A3035 RMK A01 T00131034  RH  070%=      5-min Rain = 0
KMD1 201547Z 20001KT 01/M03 A3035 RMK A01 T00141033  RH  071%=      5-min Rain = 0
KMD1 201548Z 22001KT 01/M03 A3035 RMK A01 T00141034  RH  070%=      5-min Rain = 0
KMD1 201549Z 21000KT 02/M03 A3035 RMK A01 T00151032  RH  071%=      5-min Rain = 0
KMD1 201550Z 20001KT 02/M03 A3035 RMK A01 T00161032  RH  070%=      5-min Rain = 0
KMD1 201551Z 19001KT 02/M03 A3035 RMK A01 T00171033  RH  069%=      5-min Rain = 0
KMD1 201552Z 26000KT 02/M03 A3035 RMK A01 T00171033  RH  069%=      5-min Rain = 0
KMD1 201553Z 00000KT 02/M03 A3035 RMK A01 T00181033  RH  069%=      5-min Rain = 0
KMD1 201554Z 00000KT 02/M03 A3035 RMK A01 T00191030  RH  070%=      5-min Rain = 0
KMD1 201555Z 00000KT 02/M03 A3035 RMK A01 T00201029  RH  070%=      5-min Rain = 0
KMD1 201556Z 34001KT 02/M03 A3035 RMK A01 T00211028  RH  070%=      5-min Rain = 0
KMD1 201557Z 33001KT 02/M03 A3035 RMK A01 T00221029  RH  069%=      5-min Rain = 0
KMD1 201558Z 33001KT 02/M03 A3035 RMK A01 T00231027  RH  070%=      5-min Rain = 0
KMD1 201559Z 36002KT 02/M02 A3036 RMK A01 T00241022  RH  071%=      5-min Rain = 0
KMD1 201600Z 35002KT 03/M03 A3036 RMK A01 T00251027  RH  069%=      5-min Rain = 0
KMD1 201601Z 34002KT 03/M03 A3036 RMK A01 T00251028  RH  068%=      5-min Rain = 0
KMD1 201602Z 33002KT 03/M03 A3036 RMK A01 T00261025  RH  069%=      5-min Rain = 0
KMD1 201603Z 02002KT 03/M02 A3036 RMK A01 T00281022  RH  070%=      5-min Rain = 0
KMD1 201604Z 02002KT 03/M03 A3035 RMK A01 T00281026  RH  068%=      5-min Rain = 0
KMD1 201605Z 01002KT 03/M03 A3036 RMK A01 T00281027  RH  067%=      5-min Rain = 0
KMD1 201606Z 03001KT 03/M03 A3036 RMK A01 T00281027  RH  067%=      5-min Rain = 0
KMD1 201607Z 02001KT 03/M03 A3036 RMK A01 T00281028  RH  066%=      5-min Rain = 0
KMD1 201608Z 35001KT 03/M03 A3036 RMK A01 T00291030  RH  065%=      5-min Rain = 0
KMD1 201609Z 01001KT 03/M03 A3036 RMK A01 T00311025  RH  067%=      5-min Rain = 0
KMD1 201610Z 02002KT 03/M03 A3036 RMK A01 T00321028  RH  065%=      5-min Rain = 0
KMD1 201611Z 04002KT 03/M03 A3036 RMK A01 T00321030  RH  064%=      5-min Rain = 0
KMD1 201612Z 04000KT 03/M02 A3036 RMK A01 T00321024  RH  066%=      5-min Rain = 0
KMD1 201613Z 02001KT 03/M02 A3036 RMK A01 T00341022  RH  067%=      5-min Rain = 0
KMD1 201614Z 05002KT 04/M02 A3036 RMK A01 T00361022  RH  066%=      5-min Rain = 0
KMD1 201615Z 05002KT 04/M02 A3036 RMK A01 T00381022  RH  065%=      5-min Rain = 0
KMD1 201616Z 04000KT 04/M03 A3036 RMK A01 T00381026  RH  063%=      5-min Rain = 0
KMD1 201617Z 05001KT 04/M03 A3036 RMK A01 T00381026  RH  063%=      5-min Rain = 0
KMD1 201618Z 06001KT 04/M02 A3035 RMK A01 T00401020  RH  065%=      5-min Rain = 0
KMD1 201619Z 08001KT 04/M02 A3035 RMK A01 T00441015  RH  065%=      5-min Rain = 0
KMD1 201620Z 05001KT 05/M02 A3035 RMK A01 T00461015  RH  064%=      5-min Rain = 0
KMD1 201621Z 08002KT 05/M02 A3035 RMK A01 T00471019  RH  063%=      5-min Rain = 0
KMD1 201622Z 09001KT 05/M02 A3035 RMK A01 T00471023  RH  061%=      5-min Rain = 0
KMD1 201623Z 09001KT 05/M03 A3036 RMK A01 T00471026  RH  059%=      5-min Rain = 0
KMD1 201624Z 11002KT 05/M02 A3036 RMK A01 T00481023  RH  060%=      5-min Rain = 0
KMD1 201625Z 10003KT 05/M02 A3036 RMK A01 T00501020  RH  061%=      5-min Rain = 0
KMD1 201626Z 08002KT 05/M02 A3036 RMK A01 T00501022  RH  060%=      5-min Rain = 0
KMD1 201627Z 08003KT 05/M02 A3036 RMK A01 T00511022  RH  059%=      5-min Rain = 0
KMD1 201628Z 08002KT 05/M02 A3036 RMK A01 T00531019  RH  059%=      5-min Rain = 0
KMD1 201629Z 08001KT 06/M02 A3036 RMK A01 T00551021  RH  058%=      5-min Rain = 0
KMD1 201630Z 10002KT 06/M02 A3036 RMK A01 T00571017  RH  059%=      5-min Rain = 0
KMD1 201631Z 12003KT 06/M02 A3035 RMK A01 T00591021  RH  056%=      5-min Rain = 0
KMD1 201632Z 10002KT 06/M02 A3035 RMK A01 T00591021  RH  056%=      5-min Rain = 0
KMD1 201633Z 11002KT 06/M02 A3035 RMK A01 T00601021  RH  056%=      5-min Rain = 0
KMD1 201634Z 10002KT 06/M03 A3036 RMK A01 T00601025  RH  054%=      5-min Rain = 0
KMD1 201635Z 12003KT 06/M03 A3036 RMK A01 T00601026  RH  054%=      5-min Rain = 0
KMD1 201636Z 10002KT 06/M03 A3036 RMK A01 T00601025  RH  054%=      5-min Rain = 0
KMD1 201637Z 10004KT 06/M02 A3036 RMK A01 T00611021  RH  056%=      5-min Rain = 0
KMD1 201638Z 09004KT 06/M02 A3036 RMK A01 T00631023  RH  054%=      5-min Rain = 0
KMD1 201639Z 08004KT 06/M03 A3036 RMK A01 T00631029  RH  052%=      5-min Rain = 0
KMD1 201640Z 08003KT 06/M03 A3036 RMK A01 T00621031  RH  051%=      5-min Rain = 0
KMD1 201641Z 09004KT 06/M03 A3035 RMK A01 T00621030  RH  052%=      5-min Rain = 0
KMD1 201642Z 09003KT 06/M03 A3035 RMK A01 T00611028  RH  053%=      5-min Rain = 0
KMD1 201643Z 10002KT 06/M02 A3035 RMK A01 T00631022  RH  054%=      5-min Rain = 0
KMD1 201644Z 08001KT 07/M02 A3035 RMK A01 T00651020  RH  055%=      5-min Rain = 0
KMD1 201645Z 09001KT 07/M02 A3035 RMK A01 T00671023  RH  053%=      5-min Rain = 0
KMD1 201646Z 08002KT 07/M02 A3035 RMK A01 T00681024  RH  052%=      5-min Rain = 0
KMD1 201647Z 09003KT 07/M02 A3035 RMK A01 T00681023  RH  052%=      5-min Rain = 0
KMD1 201648Z 07002KT 07/M03 A3035 RMK A01 T00681025  RH  052%=      5-min Rain = 0
KMD1 201649Z 08002KT 07/M03 A3035 RMK A01 T00681026  RH  051%=      5-min Rain = 0
KMD1 201650Z 07003KT 07/M03 A3035 RMK A01 T00661026  RH  052%=      5-min Rain = 0
KMD1 201651Z 07002KT 07/M02 A3035 RMK A01 T00661021  RH  054%=      5-min Rain = 0
KMD1 201652Z 09002KT 07/M01 A3035 RMK A01 T00691012  RH  056%=      5-min Rain = 0
KMD1 201653Z 09004KT 07/M02 A3035 RMK A01 T00701019  RH  053%=      5-min Rain = 0
KMD1 201654Z 07003KT 07/M02 A3035 RMK A01 T00701021  RH  052%=      5-min Rain = 0
KMD1 201655Z 06002KT 07/M02 A3035 RMK A01 T00691021  RH  053%=      5-min Rain = 0
KMD1 201656Z 08002KT 07/M02 A3035 RMK A01 T00691021  RH  053%=      5-min Rain = 0
KMD1 201657Z 07003KT 07/M02 A3035 RMK A01 T00711019  RH  053%=      5-min Rain = 0
KMD1 201658Z 06002KT 07/M02 A3035 RMK A01 T00711023  RH  051%=      5-min Rain = 0
KMD1 201659Z 05003KT 07/M02 A3035 RMK A01 T00721021  RH  052%=      5-min Rain = 0
KMD1 201700Z 08002KT 07/M02 A3035 RMK A01 T00731023  RH  050%=      5-min Rain = 0
KMD1 201701Z 08003KT 08/M02 A3035 RMK A01 T00751015  RH  053%=      5-min Rain = 0
KMD1 201702Z 06003KT 08/M02 A3035 RMK A01 T00781015  RH  052%=      5-min Rain = 0
KMD1 201703Z 05003KT 08/M02 A3035 RMK A01 T00791015  RH  052%=      5-min Rain = 0
KMD1 201704Z 05003KT 08/M02 A3035 RMK A01 T00791018  RH  050%=      5-min Rain = 0
KMD1 201705Z 06004KT 08/M02 A3035 RMK A01 T00791015  RH  052%=      5-min Rain = 0
KMD1 201706Z 06003KT 08/M02 A3035 RMK A01 T00801015  RH  051%=      5-min Rain = 0
KMD1 201707Z 07003KT 08/M02 A3035 RMK A01 T00801019  RH  050%=      5-min Rain = 0
KMD1 201708Z 05002KT 08/M02 A3035 RMK A01 T00801019  RH  050%=      5-min Rain = 0
KMD1 201709Z 06003KT 08/M01 A3035 RMK A01 T00811013  RH  051%=      5-min Rain = 0
KMD1 201710Z 07004KT 08/M02 A3035 RMK A01 T00831016  RH  050%=      5-min Rain = 0
KMD1 201711Z 07004KT 08/M01 A3035 RMK A01 T00841013  RH  050%=      5-min Rain = 0
KMD1 201712Z 06003KT 09/M02 A3035 RMK A01 T00851017  RH  048%=      5-min Rain = 0
KMD1 201713Z 06003KT 09/M02 A3035 RMK A01 T00851019  RH  048%=      5-min Rain = 0
KMD1 201714Z 05003KT 09/M02 A3035 RMK A01 T00851017  RH  049%=      5-min Rain = 0
KMD1 201715Z 09004KT 09/M02 A3035 RMK A01 T00851018  RH  049%=      5-min Rain = 0
KMD1 201716Z 11004KT 09/M02 A3035 RMK A01 T00861017  RH  048%=      5-min Rain = 0
KMD1 201717Z 10002KT 09/M02 A3035 RMK A01 T00871020  RH  047%=      5-min Rain = 0
KMD1 201718Z 09001KT 09/M02 A3035 RMK A01 T00881017  RH  048%=      5-min Rain = 0
KMD1 201719Z 06002KT 09/M02 A3035 RMK A01 T00891016  RH  048%=      5-min Rain = 0
KMD1 201720Z 06004KT 09/M01 A3035 RMK A01 T00901011  RH  049%=      5-min Rain = 0
KMD1 201721Z 06004KT 09/M01 A3035 RMK A01 T00911014  RH  048%=      5-min Rain = 0
KMD1 201722Z 08003KT 09/M01 A3034 RMK A01 T00921013  RH  048%=      5-min Rain = 0
KMD1 201723Z 10001KT 09/M02 A3034 RMK A01 T00921017  RH  047%=      5-min Rain = 0
KMD1 201724Z 07003KT 09/M02 A3034 RMK A01 T00931016  RH  047%=      5-min Rain = 0
KMD1 201725Z 08005KT 09/M01 A3034 RMK A01 T00941014  RH  047%=      5-min Rain = 0
KMD1 201726Z 07004KT 09/M02 A3034 RMK A01 T00921016  RH  047%=      5-min Rain = 0
KMD1 201727Z 05004KT 09/M01 A3034 RMK A01 T00911014  RH  048%=      5-min Rain = 0
KMD1 201728Z 04005KT 09/M01 A3034 RMK A01 T00921014  RH  048%=      5-min Rain = 0
KMD1 201729Z 04005KT 09/M01 A3034 RMK A01 T00921011  RH  048%=      5-min Rain = 0
KMD1 201730Z 05004KT 09/M02 A3034 RMK A01 T00931015  RH  047%=      5-min Rain = 0
KMD1 201731Z 07006KT 09/M02 A3034 RMK A01 T00931015  RH  047%=      5-min Rain = 0
KMD1 201732Z 06004KT 09/M02 A3034 RMK A01 T00931017  RH  046%=      5-min Rain = 0
KMD1 201733Z 06006KT 09/M01 A3034 RMK A01 T00941013  RH  047%=      5-min Rain = 0
KMD1 201734Z 06005KT 10/M01 A3034 RMK A01 T00951013  RH  047%=      5-min Rain = 0
KMD1 201735Z 06004KT 10/M01 A3034 RMK A01 T00961013  RH  047%=      5-min Rain = 0
KMD1 201736Z 06005KT 10/M00 A3034 RMK A01 T00981003  RH  049%=      5-min Rain = 0
KMD1 201737Z 05005KT 10/M01 A3034 RMK A01 T01001010  RH  046%=      5-min Rain = 0
KMD1 201738Z 06005KT 10/M01 A3034 RMK A01 T01001010  RH  046%=      5-min Rain = 0
KMD1 201739Z 09006KT 10/M01 A3034 RMK A01 T01001007  RH  047%=      5-min Rain = 0
KMD1 201740Z 08006KT 10/M01 A3034 RMK A01 T01021012  RH  045%=      5-min Rain = 0
KMD1 201741Z 07005KT 10/M02 A3034 RMK A01 T01011015  RH  044%=      5-min Rain = 0
KMD1 201742Z 09005KT 10/M01 A3034 RMK A01 T01001014  RH  045%=      5-min Rain = 0
KMD1 201743Z 10005KT 10/M01 A3033 RMK A01 T01011013  RH  045%=      5-min Rain = 0
KMD1 201744Z 09005KT 10/M01 A3033 RMK A01 T01031013  RH  044%=      5-min Rain = 0
KMD1 201745Z 07004KT 10/M01 A3033 RMK A01 T01031013  RH  044%=      5-min Rain = 0
KMD1 201746Z 07005KT 10/M01 A3033 RMK A01 T01031011  RH  045%=      5-min Rain = 0
KMD1 201747Z 06005KT 10/M01 A3033 RMK A01 T01041012  RH  045%=      5-min Rain = 0
KMD1 201748Z 07005KT 10/M01 A3033 RMK A01 T01031010  RH  045%=      5-min Rain = 0
KMD1 201749Z 09006KT 10/M01 A3033 RMK A01 T01041010  RH  045%=      5-min Rain = 0
KMD1 201750Z 09006KT 11/M01 A3033 RMK A01 T01061006  RH  046%=      5-min Rain = 0
KMD1 201751Z 08005KT 11/M01 A3033 RMK A01 T01071005  RH  046%=      5-min Rain = 0
KMD1 201752Z 09006KT 11/M01 A3032 RMK A01 T01081008  RH  044%=      5-min Rain = 0
KMD1 201753Z 09005KT 11/M01 A3032 RMK A01 T01081014  RH  043%=      5-min Rain = 0
KMD1 201754Z 09006KT 11/M01 A3032 RMK A01 T01071014  RH  043%=      5-min Rain = 0
KMD1 201755Z 08006KT 11/M01 A3032 RMK A01 T01061010  RH  044%=      5-min Rain = 0
KMD1 201756Z 08005KT 11/M01 A3032 RMK A01 T01071012  RH  044%=      5-min Rain = 0
KMD1 201757Z 08005KT 11/M01 A3032 RMK A01 T01071007  RH  045%=      5-min Rain = 0
KMD1 201758Z 07005KT 11/M01 A3032 RMK A01 T01101005  RH  045%=      5-min Rain = 0
KMD1 201759Z 06005KT 11/M01 A3032 RMK A01 T01121007  RH  044%=      5-min Rain = 0
KMD1 201800Z 10004KT 11/M01 A3032 RMK A01 T01131007  RH  044%=      5-min Rain = 0
KMD1 201801Z 11005KT 11/M01 A3032 RMK A01 T01141008  RH  043%=      5-min Rain = 0
KMD1 201802Z 11005KT 12/M01 A3032 RMK A01 T01151010  RH  042%=      5-min Rain = 0
KMD1 201803Z 11006KT 12/M01 A3032 RMK A01 T01151009  RH  042%=      5-min Rain = 0
KMD1 201804Z 09003KT 12/M01 A3032 RMK A01 T01161011  RH  041%=      5-min Rain = 0
KMD1 201805Z 10004KT 12/M01 A3031 RMK A01 T01171010  RH  041%=      5-min Rain = 0
KMD1 201806Z 15005KT 12/M00 A3031 RMK A01 T01201002  RH  043%=      5-min Rain = 0
KMD1 201807Z 17005KT 12/M02 A3031 RMK A01 T01241016  RH  038%=      5-min Rain = 0
KMD1 201808Z 17003KT 13/M02 A3031 RMK A01 T01251018  RH  037%=      5-min Rain = 0
KMD1 201809Z 21003KT 13/M02 A3031 RMK A01 T01271021  RH  036%=      5-min Rain = 0
KMD1 201810Z 15004KT 13/M02 A3031 RMK A01 T01281018  RH  036%=      5-min Rain = 0
KMD1 201811Z 15005KT 13/M02 A3031 RMK A01 T01291017  RH  036%=      5-min Rain = 0
KMD1 201812Z 14004KT 13/M01 A3031 RMK A01 T01311014  RH  037%=      5-min Rain = 0
KMD1 201813Z 16005KT 13/M02 A3031 RMK A01 T01321021  RH  035%=      5-min Rain = 0
KMD1 201814Z 15007KT 13/M02 A3031 RMK A01 T01311018  RH  036%=      5-min Rain = 0
KMD1 201815Z 17006KT 13/M01 A3031 RMK A01 T01311014  RH  037%=      5-min Rain = 0
KMD1 201816Z 18006KT 13/M02 A3031 RMK A01 T01331015  RH  036%=      5-min Rain = 0
KMD1 201817Z 21004KT 13/M02 A3031 RMK A01 T01331020  RH  035%=      5-min Rain = 0
KMD1 201818Z 20006KT 13/M02 A3031 RMK A01 T01321017  RH  036%=      5-min Rain = 0
KMD1 201819Z 18003KT 13/M02 A303 RMK A01 T01321022  RH  034%=      5-min Rain = 0
KMD1 201820Z 16006KT 13/M02 A303 RMK A01 T01321017  RH  036%=      5-min Rain = 0
KMD1 201821Z 17006KT 13/M02 A303 RMK A01 T01321020  RH  035%=      5-min Rain = 0
KMD1 201822Z 18006KT 13/M02 A303 RMK A01 T01321016  RH  036%=      5-min Rain = 0
KMD1 201823Z 18007KT 13/M02 A303 RMK A01 T01341016  RH  035%=      5-min Rain = 0
KMD1 201824Z 17008KT 14/M02 A303 RMK A01 T01351015  RH  035%=      5-min Rain = 0
KMD1 201825Z 15008KT 14/M01 A303 RMK A01 T01361014  RH  035%=      5-min Rain = 0
KMD1 201826Z 17007KT 14/M01 A3029 RMK A01 T01371014  RH  035%=      5-min Rain = 0
KMD1 201827Z 20005KT 14/M02 A3029 RMK A01 T01381015  RH  035%=      5-min Rain = 0
KMD1 201828Z 17006KT 14/M01 A3029 RMK A01 T01401006  RH  037%=      5-min Rain = 0
KMD1 201829Z 18008KT 14/M01 A3029 RMK A01 T01421011  RH  035%=      5-min Rain = 0
KMD1 201830Z 20006KT 14/M01 A3029 RMK A01 T01431013  RH  034%=      5-min Rain = 0
KMD1 201831Z 18008KT 14/M01 A3029 RMK A01 T01431011  RH  035%=      5-min Rain = 0
KMD1 201832Z 17006KT 14/M01 A3029 RMK A01 T01431013  RH  034%=      5-min Rain = 0
KMD1 201833Z 19003KT 14/M01 A3029 RMK A01 T01421013  RH  034%=      5-min Rain = 0
KMD1 201834Z 19006KT 14/M01 A3029 RMK A01 T01431009  RH  035%=      5-min Rain = 0
KMD1 201835Z 21010KT 15/M01 A3029 RMK A01 T01451010  RH  035%=      5-min Rain = 0
KMD1 201836Z 20010KT 15/M01 A3029 RMK A01 T01451013  RH  034%=      5-min Rain = 0
KMD1 201837Z 21009KT 15/M01 A3029 RMK A01 T01451013  RH  034%=      5-min Rain = 0
KMD1 201838Z 22010KT 15/M01 A3029 RMK A01 T01461011  RH  034%=      5-min Rain = 0
KMD1 201839Z 20009KT 15/M01 A3029 RMK A01 T01461014  RH  033%=      5-min Rain = 0
KMD1 201840Z 19007KT 15/M01 A3028 RMK A01 T01451013  RH  034%=      5-min Rain = 0
KMD1 201841Z 20009KT 15/M01 A3028 RMK A01 T01461009  RH  035%=      5-min Rain = 0
KMD1 201842Z 21010KT 15/M01 A3028 RMK A01 T01471012  RH  033%=      5-min Rain = 0
KMD1 201843Z 22007KT 15/M02 A3028 RMK A01 T01471015  RH  033%=      5-min Rain = 0
KMD1 201844Z 20010KT 15/M01 A3028 RMK A01 T01461014  RH  033%=      5-min Rain = 0
KMD1 201845Z 21010KT 15/M01 A3028 RMK A01 T01461014  RH  033%=      5-min Rain = 0
KMD1 201846Z 22011KT 15/M02 A3028 RMK A01 T01461015  RH  033%=      5-min Rain = 0
KMD1 201847Z 20011KT 15/M01 A3028 RMK A01 T01481010  RH  034%=      5-min Rain = 0
KMD1 201848Z 21011KT 15/M01 A3028 RMK A01 T01501013  RH  033%=      5-min Rain = 0
KMD1 201849Z 20011KT 15/M01 A3028 RMK A01 T01491012  RH  033%=      5-min Rain = 0
KMD1 201850Z 21009KT 15/M01 A3027 RMK A01 T01491008  RH  034%=      5-min Rain = 0
KMD1 201851Z 20008KT 15/M01 A3027 RMK A01 T01501009  RH  034%=      5-min Rain = 0
KMD1 201852Z 18009KT 15/M01 A3027 RMK A01 T01501013  RH  032%=      5-min Rain = 0
KMD1 201853Z 21009KT 15/M01 A3027 RMK A01 T01501011  RH  033%=      5-min Rain = 0
KMD1 201854Z 21010KT 15/M01 A3027 RMK A01 T01501014  RH  032%=      5-min Rain = 0
KMD1 201855Z 23011KT 15/M02 A3026 RMK A01 T01501015  RH  032%=      5-min Rain = 0
KMD1 201856Z 22011KT 15/M01 A3026 RMK A01 T01481014  RH  033%=      5-min Rain = 0
KMD1 201857Z 20009KT 15/M01 A3026 RMK A01 T01491011  RH  033%=      5-min Rain = 0
KMD1 201858Z 21011KT 15/M01 A3026 RMK A01 T01511009  RH  033%=      5-min Rain = 0
KMD1 201859Z 21010G15KT 15/M02 A3026 RMK A01 T01511016  RH  032%=      5-min Rain = 0
KMD1 201900Z 19008KT 15/M01 A3026 RMK A01 T01491010  RH  034%=      5-min Rain = 0
KMD1 201901Z 20011KT 15/M01 A3026 RMK A01 T01511008  RH  034%=      5-min Rain = 0
KMD1 201902Z 21011KT 15/M01 A3026 RMK A01 T01521010  RH  033%=      5-min Rain = 0
KMD1 201903Z 20012KT 15/M01 A3025 RMK A01 T01511009  RH  033%=      5-min Rain = 0
KMD1 201904Z 21011KT 15/M01 A3025 RMK A01 T01501013  RH  033%=      5-min Rain = 0
KMD1 201905Z 20012KT 15/M01 A3025 RMK A01 T01501009  RH  034%=      5-min Rain = 0
KMD1 201906Z 21010KT 15/M01 A3025 RMK A01 T01491009  RH  034%=      5-min Rain = 0
KMD1 201907Z 21010KT 15/M01 A3025 RMK A01 T01501011  RH  033%=      5-min Rain = 0
KMD1 201908Z 22012KT 15/M01 A3025 RMK A01 T01491010  RH  034%=      5-min Rain = 0
KMD1 201909Z 20010KT 15/M01 A3025 RMK A01 T01501010  RH  033%=      5-min Rain = 0
KMD1 201910Z 20009KT 15/M01 A3025 RMK A01 T01501010  RH  033%=      5-min Rain = 0
KMD1 201911Z 19011KT 15/M00 A3025 RMK A01 T01511004  RH  034%=      5-min Rain = 0
KMD1 201912Z 19013KT 15/M01 A3025 RMK A01 T01541008  RH  033%=      5-min Rain = 0
KMD1 201913Z 18011KT 15/M01 A3025 RMK A01 T01511010  RH  033%=      5-min Rain = 0
KMD1 201914Z 20012KT 15/M01 A3025 RMK A01 T01501006  RH  034%=      5-min Rain = 0
KMD1 201915Z 20011KT 15/M01 A3025 RMK A01 T01501010  RH  033%=      5-min Rain = 0
KMD1 201916Z 21011KT 15/M01 A3025 RMK A01 T01491008  RH  034%=      5-min Rain = 0
KMD1 201917Z 21010KT 15/M01 A3024 RMK A01 T01501005  RH  034%=      5-min Rain = 0
KMD1 201918Z 19010KT 15/M01 A3024 RMK A01 T01511010  RH  033%=      5-min Rain = 0
KMD1 201919Z 18009KT 15/M00 A3024 RMK A01 T01511004  RH  034%=      5-min Rain = 0
KMD1 201920Z 19011KT 15/M01 A3024 RMK A01 T01521007  RH  034%=      5-min Rain = 0
KMD1 201921Z 18008KT 15/M01 A3024 RMK A01 T01511009  RH  033%=      5-min Rain = 0
KMD1 201922Z 17008KT 15/M00 A3024 RMK A01 T01511004  RH  035%=      5-min Rain = 0
KMD1 201923Z 16007KT 15/M01 A3024 RMK A01 T01521008  RH  033%=      5-min Rain = 0
KMD1 201924Z 16008KT 15/00 A3024 RMK A01 T015100-0  RH  035%=      5-min Rain = 0
KMD1 201925Z 17008KT 16/00 A3024 RMK A01 T01550003  RH  035%=      5-min Rain = 0
KMD1 201926Z 19009KT 16/00 A3024 RMK A01 T015800-0  RH  034%=      5-min Rain = 0
KMD1 201927Z 18010KT 16/M00 A3023 RMK A01 T01581003  RH  033%=      5-min Rain = 0
KMD1 201928Z 18009KT 16/M01 A3023 RMK A01 T01561005  RH  033%=      5-min Rain = 0
KMD1 201929Z 19007KT 15/M01 A3023 RMK A01 T01541005  RH  034%=      5-min Rain = 0
KMD1 201930Z 16009KT 16/00 A3023 RMK A01 T01550001  RH  035%=      5-min Rain = 0
KMD1 201931Z 18009KT 16/00 A3023 RMK A01 T01570000  RH  034%=      5-min Rain = 0
KMD1 201932Z 18008KT 16/M00 A3023 RMK A01 T01581003  RH  033%=      5-min Rain = 0
KMD1 201933Z 18009KT 16/M01 A3023 RMK A01 T01561005  RH  033%=      5-min Rain = 0
KMD1 201934Z 19007KT 16/M01 A3023 RMK A01 T01551005  RH  033%=      5-min Rain = 0
KMD1 201935Z 17008KT 16/M01 A3023 RMK A01 T01551006  RH  033%=      5-min Rain = 0
KMD1 201936Z 17007KT 15/M01 A3022 RMK A01 T01541007  RH  033%=      5-min Rain = 0
KMD1 201937Z 17007KT 15/00 A3022 RMK A01 T01540000  RH  035%=      5-min Rain = 0
KMD1 201938Z 18009KT 16/00 A3022 RMK A01 T01570001  RH  035%=      5-min Rain = 0
KMD1 201939Z 18012KT 16/M00 A3022 RMK A01 T01591001  RH  034%=      5-min Rain = 0
KMD1 201940Z 17011KT 16/M00 A3022 RMK A01 T01581002  RH  033%=      5-min Rain = 0
KMD1 201941Z 16009KT 16/M00 A3022 RMK A01 T01571002  RH  034%=      5-min Rain = 0
KMD1 201942Z 17006KT 16/M00 A3022 RMK A01 T01561004  RH  034%=      5-min Rain = 0
KMD1 201943Z 17008G13KT 15/M01 A3022 RMK A01 T01541007  RH  033%=      5-min Rain = 0
KMD1 201944Z 18010KT 15/M00 A3022 RMK A01 T01541003  RH  034%=      5-min Rain = 0
KMD1 201945Z 18009KT 16/00 A3022 RMK A01 T01550001  RH  035%=      5-min Rain = 0
KMD1 201946Z 19009KT 16/M00 A3022 RMK A01 T01571003  RH  033%=      5-min Rain = 0
KMD1 201947Z 19009KT 16/00 A3022 RMK A01 T015700-0  RH  034%=      5-min Rain = 0
KMD1 201948Z 20006KT 16/00 A3022 RMK A01 T01570000  RH  034%=      5-min Rain = 0
KMD1 201949Z 18006KT 16/M00 A3022 RMK A01 T01581002  RH  034%=      5-min Rain = 0
KMD1 201950Z 15009KT 16/00 A3022 RMK A01 T01580001  RH  034%=      5-min Rain = 0
KMD1 201951Z 16007KT 16/00 A3022 RMK A01 T01580000  RH  034%=      5-min Rain = 0
KMD1 201952Z 17007G12KT 16/01 A3022 RMK A01 T01580005  RH  035%=      5-min Rain = 0
KMD1 201953Z 17009KT 16/00 A3021 RMK A01 T016000-0  RH  034%=      5-min Rain = 0
KMD1 201954Z 18008KT 16/M00 A3021 RMK A01 T01591001  RH  034%=      5-min Rain = 0
KMD1 201955Z 18011KT 16/00 A3021 RMK A01 T01590000  RH  034%=      5-min Rain = 0
KMD1 201956Z 18008KT 16/M00 A3021 RMK A01 T01591002  RH  033%=      5-min Rain = 0
KMD1 201957Z 17007KT 16/M00 A3021 RMK A01 T01591001  RH  034%=      5-min Rain = 0
KMD1 201958Z 16010KT 16/M00 A3021 RMK A01 T01591001  RH  033%=      5-min Rain = 0
KMD1 201959Z 18012KT 16/00 A3021 RMK A01 T01610002  RH  034%=      5-min Rain = 0
KMD1 202000Z 19011KT 16/M00 A3021 RMK A01 T01621002  RH  033%=      5-min Rain = 0
KMD1 202001Z 18010KT 16/M00 A3021 RMK A01 T01611002  RH  033%=      5-min Rain = 0
KMD1 202002Z 19009KT 16/M00 A3021 RMK A01 T01601001  RH  033%=      5-min Rain = 0
KMD1 202003Z 20011KT 16/00 A3021 RMK A01 T016000-0  RH  033%=      5-min Rain = 0
KMD1 202004Z 18010KT 16/M00 A3021 RMK A01 T01601003  RH  033%=      5-min Rain = 0
KMD1 202005Z 20007KT 16/M01 A3021 RMK A01 T01581005  RH  033%=      5-min Rain = 0
KMD1 202006Z 19007KT 16/00 A3021 RMK A01 T01580000  RH  034%=      5-min Rain = 0
KMD1 202007Z 19010KT 16/M00 A3021 RMK A01 T01591001  RH  033%=      5-min Rain = 0
KMD1 202008Z 21010KT 16/M00 A3021 RMK A01 T01601001  RH  033%=      5-min Rain = 0
KMD1 202009Z 21009KT 16/M00 A3021 RMK A01 T01611002  RH  033%=      5-min Rain = 0
KMD1 202010Z 21008KT 16/M00 A3021 RMK A01 T01611001  RH  033%=      5-min Rain = 0
KMD1 202011Z 20009KT 16/00 A3021 RMK A01 T01630004  RH  034%=      5-min Rain = 0
KMD1 202012Z 20010KT 16/M00 A3021 RMK A01 T01641003  RH  032%=      5-min Rain = 0
KMD1 202013Z 20009KT 16/M00 A3021 RMK A01 T01631001  RH  033%=      5-min Rain = 0
KMD1 202014Z 21011KT 16/00 A3021 RMK A01 T016300-0  RH  033%=      5-min Rain = 0
KMD1 202015Z 20010KT 16/00 A3021 RMK A01 T01630002  RH  033%=      5-min Rain = 0
KMD1 202016Z 20011KT 16/M00 A3021 RMK A01 T01641001  RH  033%=      5-min Rain = 0
KMD1 202017Z 19009KT 16/M00 A3021 RMK A01 T01631001  RH  033%=      5-min Rain = 0
KMD1 202018Z 21010KT 16/00 A3021 RMK A01 T016300-0  RH  033%=      5-min Rain = 0
KMD1 202019Z 22010KT 16/00 A3021 RMK A01 T01630001  RH  033%=      5-min Rain = 0
KMD1 202020Z 22009KT 16/M00 A3021 RMK A01 T01641003  RH  032%=      5-min Rain = 0
KMD1 202021Z 20009KT 16/M00 A3021 RMK A01 T01641003  RH  032%=      5-min Rain = 0
KMD1 202022Z 21006KT 16/M00 A3021 RMK A01 T01641002  RH  032%=      5-min Rain = 0
KMD1 202023Z 22006KT 16/00 A3021 RMK A01 T016400-0  RH  033%=      5-min Rain = 0
KMD1 202024Z 19008KT 17/01 A3021 RMK A01 T01660006  RH  034%=      5-min Rain = 0
KMD1 202025Z 21007KT 17/M00 A3021 RMK A01 T01681001  RH  032%=      5-min Rain = 0
KMD1 202026Z 20009KT 17/00 A302 RMK A01 T01680000  RH  032%=      5-min Rain = 0
KMD1 202027Z 21008KT 17/00 A302 RMK A01 T01690002  RH  032%=      5-min Rain = 0
KMD1 202028Z 19011KT 17/00 A302 RMK A01 T016900-0  RH  032%=      5-min Rain = 0
KMD1 202029Z 18010KT 17/00 A302 RMK A01 T01690000  RH  032%=      5-min Rain = 0
KMD1 202030Z 16009KT 17/00 A302 RMK A01 T01680000  RH  032%=      5-min Rain = 0
KMD1 202031Z 17011KT 17/00 A302 RMK A01 T01680002  RH  032%=      5-min Rain = 0
KMD1 202032Z 18011KT 17/00 A302 RMK A01 T01690001  RH  032%=      5-min Rain = 0
KMD1 202033Z 18011KT 17/M00 A302 RMK A01 T01691001  RH  031%=      5-min Rain = 0
KMD1 202034Z 20007KT 17/00 A302 RMK A01 T01700004  RH  033%=      5-min Rain = 0
KMD1 202035Z 21008G13KT 17/01 A302 RMK A01 T01720007  RH  033%=      5-min Rain = 0
KMD1 202036Z 21010KT 17/00 A302 RMK A01 T01740002  RH  031%=      5-min Rain = 0
KMD1 202037Z 19012KT 17/00 A302 RMK A01 T01730000  RH  031%=      5-min Rain = 0
KMD1 202038Z 20009KT 17/M00 A302 RMK A01 T01701001  RH  031%=      5-min Rain = 0
KMD1 202039Z 21007KT 17/00 A302 RMK A01 T01690001  RH  032%=      5-min Rain = 0
KMD1 202040Z 20007KT 17/00 A302 RMK A01 T016800-0  RH  032%=      5-min Rain = 0
KMD1 202041Z 21007KT 17/00 A302 RMK A01 T01690002  RH  032%=      5-min Rain = 0
KMD1 202042Z 19008KT 17/00 A302 RMK A01 T01700004  RH  033%=      5-min Rain = 0
KMD1 202043Z 18008KT 17/00 A302 RMK A01 T01720002  RH  032%=      5-min Rain = 0
KMD1 202044Z 17007KT 17/00 A302 RMK A01 T01720003  RH  032%=      5-min Rain = 0
KMD1 202045Z 19006KT 17/00 A302 RMK A01 T01710004  RH  032%=      5-min Rain = 0
KMD1 202046Z 21004KT 17/M00 A302 RMK A01 T01711002  RH  031%=      5-min Rain = 0
KMD1 202047Z 22005KT 17/00 A302 RMK A01 T01700000  RH  032%=      5-min Rain = 0
KMD1 202048Z 24009KT 17/00 A302 RMK A01 T01710001  RH  032%=      5-min Rain = 0
KMD1 202049Z 24008KT 17/M00 A302 RMK A01 T01711004  RH  031%=      5-min Rain = 0
KMD1 202050Z 24008KT 17/M00 A302 RMK A01 T01711003  RH  031%=      5-min Rain = 0
KMD1 202051Z 23008KT 17/M00 A302 RMK A01 T01701002  RH  031%=      5-min Rain = 0
KMD1 202052Z 22010KT 17/M00 A302 RMK A01 T01701001  RH  031%=      5-min Rain = 0
KMD1 202053Z 20008KT 17/00 A302 RMK A01 T01710000  RH  031%=      5-min Rain = 0
KMD1 202054Z 18008KT 17/M00 A302 RMK A01 T01711001  RH  031%=      5-min Rain = 0
KMD1 202055Z 18008KT 17/00 A302 RMK A01 T01710004  RH  032%=      5-min Rain = 0
KMD1 202056Z 20010KT 17/01 A3019 RMK A01 T01720006  RH  032%=      5-min Rain = 0
KMD1 202057Z 20012KT 17/01 A3019 RMK A01 T01740007  RH  032%=      5-min Rain = 0
KMD1 202058Z 20010KT 17/M00 A3019 RMK A01 T01731001  RH  031%=      5-min Rain = 0
KMD1 202059Z 19010KT 17/00 A3019 RMK A01 T01710002  RH  032%=      5-min Rain = 0
KMD1 202100Z 19008KT 17/00 A3019 RMK A01 T01710003  RH  032%=      5-min Rain = 0
KMD1 202101Z 18009KT 17/00 A3019 RMK A01 T01710002  RH  032%=      5-min Rain = 0
KMD1 202102Z 20007KT 17/M00 A3019 RMK A01 T01711002  RH  031%=      5-min Rain = 0
KMD1 202103Z 20007KT 17/00 A3019 RMK A01 T01700002  RH  032%=      5-min Rain = 0
KMD1 202104Z 20006KT 17/00 A3019 RMK A01 T01710003  RH  032%=      5-min Rain = 0
KMD1 202105Z 19008KT 17/M00 A3019 RMK A01 T01721001  RH  031%=      5-min Rain = 0
KMD1 202106Z 19010KT 17/00 A3019 RMK A01 T01720002  RH  032%=      5-min Rain = 0
KMD1 202107Z 19010KT 17/01 A3019 RMK A01 T01740009  RH  033%=      5-min Rain = 0
KMD1 202108Z 19011KT 18/01 A3019 RMK A01 T01760006  RH  032%=      5-min Rain = 0
KMD1 202109Z 20010KT 18/00 A3018 RMK A01 T01760004  RH  031%=      5-min Rain = 0
KMD1 202110Z 21009KT 17/01 A3018 RMK A01 T01740005  RH  032%=      5-min Rain = 0
KMD1 202111Z 22012KT 17/01 A3018 RMK A01 T01740006  RH  032%=      5-min Rain = 0
KMD1 202112Z 22008KT 17/00 A3018 RMK A01 T01730003  RH  032%=      5-min Rain = 0
KMD1 202113Z 21009KT 17/00 A3018 RMK A01 T01710001  RH  032%=      5-min Rain = 0
KMD1 202114Z 22007KT 17/00 A3018 RMK A01 T01700003  RH  032%=      5-min Rain = 0
KMD1 202115Z 22007KT 17/00 A3018 RMK A01 T017000-0  RH  031%=      5-min Rain = 0
KMD1 202116Z 22006KT 17/00 A3018 RMK A01 T01710004  RH  032%=      5-min Rain = 0
KMD1 202117Z 22006KT 17/00 A3018 RMK A01 T01720002  RH  032%=      5-min Rain = 0
KMD1 202118Z 20008KT 17/00 A3018 RMK A01 T01730003  RH  032%=      5-min Rain = 0
KMD1 202119Z 21010KT 17/00 A3018 RMK A01 T01730000  RH  031%=      5-min Rain = 0
KMD1 202120Z 21013KT 17/M01 A3018 RMK A01 T01741005  RH  030%=      5-min Rain = 0
KMD1 202121Z 21011KT 17/M01 A3018 RMK A01 T01731008  RH  029%=      5-min Rain = 0
KMD1 202122Z 21012KT 17/M01 A3018 RMK A01 T01721007  RH  030%=      5-min Rain = 0
KMD1 202123Z 21012KT 17/M01 A3018 RMK A01 T01721005  RH  030%=      5-min Rain = 0
KMD1 202124Z 21012KT 17/M01 A3018 RMK A01 T01711008  RH  030%=      5-min Rain = 0
KMD1 202125Z 21009KT 17/M01 A3018 RMK A01 T01711008  RH  030%=      5-min Rain = 0
KMD1 202126Z 21010KT 17/M01 A3018 RMK A01 T01701006  RH  030%=      5-min Rain = 0
KMD1 202127Z 21011KT 17/M01 A3018 RMK A01 T01701007  RH  030%=      5-min Rain = 0
KMD1 202128Z 22009KT 17/M01 A3018 RMK A01 T01701006  RH  030%=      5-min Rain = 0
KMD1 202129Z 21011KT 17/M00 A3018 RMK A01 T01701004  RH  031%=      5-min Rain = 0
KMD1 202130Z 22013KT 17/M01 A3018 RMK A01 T01691008  RH  030%=      5-min Rain = 0
KMD1 202131Z 21012KT 17/M01 A3018 RMK A01 T01681007  RH  030%=      5-min Rain = 0
KMD1 202132Z 22011KT 17/M01 A3018 RMK A01 T01671006  RH  031%=      5-min Rain = 0
KMD1 202133Z 22009KT 17/M00 A3018 RMK A01 T01661004  RH  031%=      5-min Rain = 0
KMD1 202134Z 22009KT 17/M01 A3017 RMK A01 T01671005  RH  031%=      5-min Rain = 0
KMD1 202135Z 22010KT 17/M00 A3017 RMK A01 T01671004  RH  031%=      5-min Rain = 0
KMD1 202136Z 22009KT 17/M00 A3017 RMK A01 T01671004  RH  031%=      5-min Rain = 0
KMD1 202137Z 22009KT 17/M01 A3017 RMK A01 T01671005  RH  031%=      5-min Rain = 0
KMD1 202138Z 21009KT 17/M00 A3017 RMK A01 T01671004  RH  031%=      5-min Rain = 0
KMD1 202139Z 21009KT 17/M01 A3017 RMK A01 T01671008  RH  030%=      5-min Rain = 0
KMD1 202140Z 20010KT 17/M00 A3017 RMK A01 T01661004  RH  031%=      5-min Rain = 0
KMD1 202141Z 21008KT 17/M00 A3017 RMK A01 T01671003  RH  032%=      5-min Rain = 0
KMD1 202142Z 20008KT 17/00 A3017 RMK A01 T01670001  RH  032%=      5-min Rain = 0
KMD1 202143Z 18006KT 17/00 A3017 RMK A01 T01660003  RH  033%=      5-min Rain = 0
KMD1 202144Z 19009KT 17/00 A3017 RMK A01 T01670003  RH  033%=      5-min Rain = 0
KMD1 202145Z 20011KT 17/00 A3017 RMK A01 T01670000  RH  032%=      5-min Rain = 0
KMD1 202146Z 20011KT 17/00 A3017 RMK A01 T01660000  RH  032%=      5-min Rain = 0
KMD1 202147Z 20011KT 17/M00 A3018 RMK A01 T01661001  RH  032%=      5-min Rain = 0
KMD1 202148Z 21009KT 17/00 A3018 RMK A01 T016600-0  RH  032%=      5-min Rain = 0
KMD1 202149Z 20010KT 17/00 A3018 RMK A01 T01650002  RH  033%=      5-min Rain = 0
KMD1 202150Z 20010KT 17/M00 A3018 RMK A01 T01661003  RH  032%=      5-min Rain = 0
KMD1 202151Z 22007KT 17/M00 A3018 RMK A01 T01661002  RH  032%=      5-min Rain = 0
KMD1 202152Z 21011KT 17/00 A3018 RMK A01 T016600-0  RH  032%=      5-min Rain = 0
KMD1 202153Z 22010KT 17/M00 A3018 RMK A01 T01661001  RH  032%=      5-min Rain = 0
KMD1 202154Z 22010KT 17/M00 A3018 RMK A01 T01681001  RH  032%=      5-min Rain = 0
KMD1 202155Z 22008KT 17/00 A3018 RMK A01 T016800-0  RH  032%=      5-min Rain = 0
KMD1 202156Z 22009KT 17/M00 A3018 RMK A01 T01681001  RH  032%=      5-min Rain = 0
KMD1 202157Z 22012KT 17/M00 A3018 RMK A01 T01681003  RH  031%=      5-min Rain = 0
KMD1 202158Z 21011KT 17/M00 A3018 RMK A01 T01671004  RH  031%=      5-min Rain = 0
KMD1 202159Z 21009KT 17/M00 A3018 RMK A01 T01661003  RH  032%=      5-min Rain = 0
KMD1 202200Z 21010KT 17/M00 A3018 RMK A01 T01661001  RH  032%=      5-min Rain = 0
KMD1 202201Z 21009KT 17/M00 A3018 RMK A01 T01661004  RH  031%=      5-min Rain = 0
KMD1 202202Z 21010KT 17/M00 A3018 RMK A01 T01661004  RH  031%=      5-min Rain = 0
KMD1 202203Z 20009KT 17/M00 A3018 RMK A01 T01661004  RH  032%=      5-min Rain = 0
KMD1 202204Z 21007KT 17/M00 A3018 RMK A01 T01661001  RH  032%=      5-min Rain = 0
KMD1 202205Z 20006KT 17/00 A3018 RMK A01 T01660002  RH  033%=      5-min Rain = 0
KMD1 202206Z 21007KT 17/01 A3018 RMK A01 T01670006  RH  034%=      5-min Rain = 0
KMD1 202207Z 20009KT 17/00 A3018 RMK A01 T01670002  RH  033%=      5-min Rain = 0
KMD1 202208Z 21010KT 17/00 A3018 RMK A01 T01670002  RH  033%=      5-min Rain = 0
KMD1 202209Z 20010KT 17/00 A3018 RMK A01 T016800-0  RH  032%=      5-min Rain = 0
KMD1 202210Z 19010KT 17/00 A3018 RMK A01 T01680000  RH  032%=      5-min Rain = 0
KMD1 202211Z 20010KT 17/M00 A3018 RMK A01 T01681002  RH  031%=      5-min Rain = 0
KMD1 202212Z 20008KT 17/M00 A3018 RMK A01 T01681003  RH  031%=      5-min Rain = 0
KMD1 202213Z 20008KT 17/00 A3018 RMK A01 T01660001  RH  032%=      5-min Rain = 0
KMD1 202214Z 20009KT 17/M00 A3018 RMK A01 T01661004  RH  031%=      5-min Rain = 0
KMD1 202215Z 20009KT 17/M00 A3018 RMK A01 T01661004  RH  031%=      5-min Rain = 0
KMD1 202216Z 22010KT 17/M00 A3018 RMK A01 T01671002  RH  032%=      5-min Rain = 0
KMD1 202217Z 21008KT 17/00 A3018 RMK A01 T016800-0  RH  032%=      5-min Rain = 0
KMD1 202218Z 22011KT 17/00 A3018 RMK A01 T016900-0  RH  032%=      5-min Rain = 0
KMD1 202219Z 22008KT 17/00 A3018 RMK A01 T01700000  RH  032%=      5-min Rain = 0
KMD1 202220Z 21010KT 17/00 A3018 RMK A01 T01710000  RH  031%=      5-min Rain = 0
KMD1 202221Z 21011KT 17/M00 A3018 RMK A01 T01711004  RH  030%=      5-min Rain = 0
KMD1 202222Z 21010KT 17/M00 A3018 RMK A01 T01721003  RH  031%=      5-min Rain = 0
KMD1 202223Z 21010KT 17/M00 A3018 RMK A01 T01711001  RH  031%=      5-min Rain = 0
KMD1 202224Z 20010KT 17/M00 A3018 RMK A01 T01721001  RH  031%=      5-min Rain = 0
KMD1 202225Z 21010KT 17/M00 A3018 RMK A01 T01721004  RH  030%=      5-min Rain = 0
KMD1 202226Z 21007KT 17/00 A3018 RMK A01 T01710001  RH  031%=      5-min Rain = 0
KMD1 202227Z 20011KT 17/00 A3018 RMK A01 T01720001  RH  032%=      5-min Rain = 0
KMD1 202228Z 20010KT 17/M00 A3018 RMK A01 T01711004  RH  030%=      5-min Rain = 0
KMD1 202229Z 20010KT 17/M00 A3018 RMK A01 T01701003  RH  031%=      5-min Rain = 0
KMD1 202230Z 20009KT 17/M00 A3018 RMK A01 T01701001  RH  031%=      5-min Rain = 0
KMD1 202231Z 19008KT 17/M00 A3018 RMK A01 T01701003  RH  031%=      5-min Rain = 0
KMD1 202232Z 19007KT 17/M00 A3018 RMK A01 T01701001  RH  031%=      5-min Rain = 0
KMD1 202233Z 22009KT 17/00 A3018 RMK A01 T01710002  RH  032%=      5-min Rain = 0
KMD1 202234Z 19009KT 17/00 A3018 RMK A01 T01710003  RH  032%=      5-min Rain = 0
KMD1 202235Z 18011KT 17/M00 A3018 RMK A01 T01721003  RH  031%=      5-min Rain = 0
KMD1 202236Z 19010KT 17/M00 A3018 RMK A01 T01711003  RH  031%=      5-min Rain = 0
KMD1 202237Z 19011KT 17/M00 A3017 RMK A01 T01701003  RH  031%=      5-min Rain = 0
KMD1 202238Z 19011KT 17/M00 A3017 RMK A01 T01691003  RH  031%=      5-min Rain = 0
KMD1 202239Z 18009KT 17/M00 A3017 RMK A01 T01681002  RH  032%=      5-min Rain = 0
KMD1 202240Z 19010KT 17/00 A3017 RMK A01 T01680002  RH  032%=      5-min Rain = 0
KMD1 202241Z 19008KT 17/M00 A3017 RMK A01 T01671001  RH  032%=      5-min Rain = 0
KMD1 202242Z 19008KT 17/00 A3017 RMK A01 T016700-0  RH  032%=      5-min Rain = 0
KMD1 202243Z 19007KT 17/M00 A3017 RMK A01 T01661002  RH  032%=      5-min Rain = 0
KMD1 202244Z 20007KT 17/00 A3018 RMK A01 T01660001  RH  033%=      5-min Rain = 0
KMD1 202245Z 19008KT 17/00 A3018 RMK A01 T01660001  RH  033%=      5-min Rain = 0
KMD1 202246Z 21009KT 17/00 A3018 RMK A01 T01660001  RH  033%=      5-min Rain = 0
KMD1 202247Z 22009KT 17/M00 A3018 RMK A01 T01661001  RH  032%=      5-min Rain = 0
KMD1 202248Z 22008KT 17/M00 A3018 RMK A01 T01661002  RH  032%=      5-min Rain = 0
KMD1 202249Z 21008KT 17/M00 A3017 RMK A01 T01661002  RH  032%=      5-min Rain = 0
KMD1 202250Z 21007KT 17/00 A3017 RMK A01 T01650000  RH  033%=      5-min Rain = 0
KMD1 202251Z 21009KT 17/M00 A3017 RMK A01 T01651002  RH  032%=      5-min Rain = 0
KMD1 202252Z 21009KT 17/M00 A3017 RMK A01 T01651003  RH  032%=      5-min Rain = 0
KMD1 202253Z 21007KT 17/M00 A3017 RMK A01 T01651002  RH  032%=      5-min Rain = 0
KMD1 202254Z 21007KT 17/00 A3017 RMK A01 T01650000  RH  033%=      5-min Rain = 0
KMD1 202255Z 20008KT 16/00 A3017 RMK A01 T01640000  RH  033%=      5-min Rain = 0
KMD1 202256Z 20008KT 16/M00 A3017 RMK A01 T01641002  RH  032%=      5-min Rain = 0
KMD1 202257Z 20007KT 16/M00 A3017 RMK A01 T01631001  RH  033%=      5-min Rain = 0
KMD1 202258Z 20008KT 16/00 A3017 RMK A01 T01630001  RH  033%=      5-min Rain = 0
KMD1 202259Z 19009KT 16/M00 A3017 RMK A01 T01631001  RH  033%=      5-min Rain = 0
KMD1 202300Z 20008KT 16/M00 A3017 RMK A01 T01621003  RH  032%=      5-min Rain = 0
KMD1 202301Z 21008KT 16/M00 A3017 RMK A01 T01621001  RH  033%=      5-min Rain = 0
KMD1 202302Z 20009KT 16/M00 A3017 RMK A01 T01621003  RH  032%=      5-min Rain = 0
KMD1 202303Z 21009KT 16/M00 A3017 RMK A01 T01631002  RH  033%=      5-min Rain = 0
KMD1 202304Z 21009KT 16/M00 A3017 RMK A01 T01631002  RH  033%=      5-min Rain = 0
KMD1 202305Z 21009KT 16/M00 A3017 RMK A01 T01621003  RH  032%=      5-min Rain = 0
KMD1 202306Z 21009KT 16/M00 A3017 RMK A01 T01631003  RH  032%=      5-min Rain = 0
KMD1 202307Z 20009KT 16/M00 A3017 RMK A01 T01621002  RH  033%=      5-min Rain = 0
KMD1 202308Z 20010KT 16/M00 A3017 RMK A01 T01611003  RH  033%=      5-min Rain = 0
KMD1 202309Z 20010KT 16/M00 A3017 RMK A01 T01611003  RH  033%=      5-min Rain = 0
KMD1 202310Z 20009KT 16/M00 A3017 RMK A01 T01611004  RH  032%=      5-min Rain = 0
KMD1 202311Z 20007KT 16/M00 A3017 RMK A01 T01611003  RH  033%=      5-min Rain = 0
KMD1 202312Z 20009KT 16/00 A3017 RMK A01 T01610001  RH  034%=      5-min Rain = 0
KMD1 202313Z 20008KT 16/M00 A3017 RMK A01 T01611001  RH  033%=      5-min Rain = 0
KMD1 202314Z 20007KT 16/00 A3017 RMK A01 T01610002  RH  034%=      5-min Rain = 0
KMD1 202315Z 20009KT 16/M00 A3017 RMK A01 T01611001  RH  033%=      5-min Rain = 0
KMD1 202316Z 20008KT 16/M00 A3017 RMK A01 T01611002  RH  033%=      5-min Rain = 0
KMD1 202317Z 21008KT 16/00 A3017 RMK A01 T01610002  RH  034%=      5-min Rain = 0
KMD1 202318Z 20006KT 16/00 A3017 RMK A01 T01610002  RH  034%=      5-min Rain = 0
KMD1 202319Z 19006KT 16/00 A3017 RMK A01 T01610003  RH  034%=      5-min Rain = 0
KMD1 202320Z 21007KT 16/00 A3017 RMK A01 T01620002  RH  034%=      5-min Rain = 0
KMD1 202321Z 20008KT 16/00 A3017 RMK A01 T01620000  RH  033%=      5-min Rain = 0
KMD1 202322Z 20007KT 16/00 A3017 RMK A01 T01620001  RH  033%=      5-min Rain = 0
KMD1 202323Z 20006KT 16/00 A3017 RMK A01 T01620002  RH  034%=      5-min Rain = 0
KMD1 202324Z 20008KT 16/00 A3017 RMK A01 T01620001  RH  033%=      5-min Rain = 0
KMD1 202325Z 20005KT 16/00 A3017 RMK A01 T01620000  RH  033%=      5-min Rain = 0
KMD1 202326Z 20008KT 16/00 A3017 RMK A01 T01610001  RH  034%=      5-min Rain = 0
KMD1 202327Z 20006KT 16/M00 A3017 RMK A01 T01611001  RH  033%=      5-min Rain = 0
KMD1 202328Z 19007KT 16/00 A3017 RMK A01 T01620002  RH  034%=      5-min Rain = 0
KMD1 202329Z 20007KT 16/M00 A3017 RMK A01 T01621002  RH  033%=      5-min Rain = 0
KMD1 202330Z 19007KT 16/M00 A3017 RMK A01 T01621001  RH  033%=      5-min Rain = 0
KMD1 202331Z 20006KT 16/00 A3017 RMK A01 T01620002  RH  034%=      5-min Rain = 0
KMD1 202332Z 20008KT 16/00 A3017 RMK A01 T01620001  RH  034%=      5-min Rain = 0
KMD1 202333Z 19007KT 16/M00 A3017 RMK A01 T01611001  RH  033%=      5-min Rain = 0
KMD1 202334Z 19006KT 16/00 A3017 RMK A01 T01620000  RH  033%=      5-min Rain = 0
KMD1 202335Z 19006KT 16/00 A3017 RMK A01 T01610000  RH  033%=      5-min Rain = 0
KMD1 202336Z 20005KT 16/00 A3017 RMK A01 T01610001  RH  034%=      5-min Rain = 0
KMD1 202337Z 20005KT 16/00 A3017 RMK A01 T01600001  RH  034%=      5-min Rain = 0
KMD1 202338Z 19006KT 16/00 A3017 RMK A01 T01600003  RH  034%=      5-min Rain = 0
KMD1 202339Z 20008KT 16/00 A3017 RMK A01 T01590001  RH  034%=      5-min Rain = 0
KMD1 202340Z 19007KT 16/M00 A3017 RMK A01 T01591001  RH  034%=      5-min Rain = 0
KMD1 202341Z 19007KT 16/00 A3017 RMK A01 T01590002  RH  034%=      5-min Rain = 0
KMD1 202342Z 20007KT 16/00 A3017 RMK A01 T01580002  RH  035%=      5-min Rain = 0
KMD1 202343Z 19006KT 16/00 A3017 RMK A01 T01580002  RH  035%=      5-min Rain = 0
KMD1 202344Z 19007KT 16/00 A3017 RMK A01 T01570003  RH  035%=      5-min Rain = 0
KMD1 202345Z 19008KT 16/00 A3017 RMK A01 T01560002  RH  035%=      5-min Rain = 0
KMD1 202346Z 20007KT 16/00 A3017 RMK A01 T01560001  RH  035%=      5-min Rain = 0
KMD1 202347Z 19006KT 16/00 A3017 RMK A01 T01560002  RH  035%=      5-min Rain = 0
KMD1 202348Z 20006KT 16/00 A3017 RMK A01 T01560003  RH  035%=      5-min Rain = 0
KMD1 202349Z 19006KT 16/00 A3017 RMK A01 T01550004  RH  036%=      5-min Rain = 0
KMD1 202350Z 20006KT 15/00 A3017 RMK A01 T01540004  RH  036%=      5-min Rain = 0
KMD1 202351Z 20006KT 15/00 A3017 RMK A01 T01520004  RH  036%=      5-min Rain = 0
KMD1 202352Z 20006KT 15/00 A3017 RMK A01 T01510004  RH  037%=      5-min Rain = 0
KMD1 202353Z 20007KT 15/00 A3017 RMK A01 T01500004  RH  037%=      5-min Rain = 0
KMD1 202354Z 20008KT 15/00 A3017 RMK A01 T01490002  RH  037%=      5-min Rain = 0
KMD1 202355Z 20007KT 15/00 A3017 RMK A01 T01490002  RH  037%=      5-min Rain = 0
KMD1 202356Z 20006KT 15/00 A3017 RMK A01 T01480002  RH  037%=      5-min Rain = 0
KMD1 202357Z 20006KT 15/00 A3017 RMK A01 T01480002  RH  037%=      5-min Rain = 0
KMD1 202358Z 20008KT 15/00 A3017 RMK A01 T01460001  RH  037%=      5-min Rain = 0
KMD1 202359Z 20006KT 15/M00 A3017 RMK A01 T01461001  RH  037%=      5-min Rain = 0
KMD1 210000Z 20006KT 15/00 A3017 RMK A01 T01460000  RH  037%=      5-min Rain = 0
KMD1 210001Z 20006KT 15/00 A3017 RMK A01 T01450001  RH  037%=      5-min Rain = 0
KMD1 210002Z 20006KT 14/00 A3017 RMK A01 T01440001  RH  038%=      5-min Rain = 0
KMD1 210003Z 20006KT 14/00 A3016 RMK A01 T01430001  RH  038%=      5-min Rain = 0
KMD1 210004Z 20006KT 14/00 A3016 RMK A01 T01410000  RH  038%=      5-min Rain = 0
KMD1 210005Z 20006KT 14/00 A3016 RMK A01 T01400001  RH  038%=      5-min Rain = 0
KMD1 210006Z 19005KT 14/00 A3016 RMK A01 T01390001  RH  039%=      5-min Rain = 0
KMD1 210007Z 20006KT 14/00 A3016 RMK A01 T01380001  RH  039%=      5-min Rain = 0
KMD1 210008Z 19005KT 14/00 A3016 RMK A01 T01370001  RH  039%=      5-min Rain = 0
KMD1 210009Z 19005KT 14/00 A3016 RMK A01 T013600-0  RH  039%=      5-min Rain = 0
KMD1 210010Z 19005KT 14/00 A3016 RMK A01 T01360000  RH  039%=      5-min Rain = 0
KMD1 210011Z 20005KT 14/00 A3016 RMK A01 T013500-0  RH  039%=      5-min Rain = 0
KMD1 210012Z 19005KT 14/00 A3016 RMK A01 T013500-0  RH  039%=      5-min Rain = 0
KMD1 210013Z 20004KT 14/M00 A3016 RMK A01 T01351001  RH  039%=      5-min Rain = 0
KMD1 210014Z 19004KT 14/00 A3016 RMK A01 T013500-0  RH  040%=      5-min Rain = 0
KMD1 210015Z 20004KT 13/00 A3016 RMK A01 T01340000  RH  040%=      5-min Rain = 0
KMD1 210016Z 20004KT 13/00 A3016 RMK A01 T01330000  RH  040%=      5-min Rain = 0
KMD1 210017Z 19004KT 13/00 A3016 RMK A01 T01330000  RH  040%=      5-min Rain = 0
KMD1 210018Z 20003KT 13/M00 A3016 RMK A01 T01331001  RH  040%=      5-min Rain = 0
KMD1 210019Z 20004KT 13/M00 A3016 RMK A01 T01321001  RH  040%=      5-min Rain = 0
KMD1 210020Z 20004KT 13/M00 A3016 RMK A01 T01321002  RH  040%=      5-min Rain = 0
KMD1 210021Z 19004KT 13/M00 A3016 RMK A01 T01321002  RH  040%=      5-min Rain = 0
KMD1 210022Z 19004KT 13/M00 A3017 RMK A01 T01321003  RH  039%=      5-min Rain = 0
KMD1 210023Z 19004KT 13/M00 A3017 RMK A01 T01321003  RH  039%=      5-min Rain = 0
KMD1 210024Z 19003KT 13/M00 A3017 RMK A01 T01321002  RH  040%=      5-min Rain = 0
KMD1 210025Z 19004KT 13/M00 A3017 RMK A01 T01321002  RH  040%=      5-min Rain = 0
KMD1 210026Z 19004KT 13/M00 A3017 RMK A01 T01311002  RH  040%=      5-min Rain = 0
KMD1 210027Z 19003KT 13/M00 A3017 RMK A01 T01311003  RH  040%=      5-min Rain = 0
KMD1 210028Z 19004KT 13/M00 A3016 RMK A01 T01301003  RH  040%=      5-min Rain = 0
KMD1 210029Z 19004KT 13/M00 A3016 RMK A01 T01301003  RH  040%=      5-min Rain = 0
KMD1 210030Z 19005KT 13/M00 A3016 RMK A01 T01301003  RH  040%=      5-min Rain = 0
KMD1 210031Z 19005KT 13/M00 A3016 RMK A01 T01301002  RH  040%=      5-min Rain = 0
KMD1 210032Z 19005KT 13/M00 A3016 RMK A01 T01291002  RH  041%=      5-min Rain = 0
KMD1 210033Z 19005KT 13/M00 A3016 RMK A01 T01281002  RH  041%=      5-min Rain = 0
KMD1 210034Z 19005KT 13/M00 A3016 RMK A01 T01281002  RH  041%=      5-min Rain = 0
KMD1 210035Z 19005KT 13/M00 A3016 RMK A01 T01271002  RH  041%=      5-min Rain = 0
KMD1 210036Z 19005KT 13/M00 A3016 RMK A01 T01271002  RH  041%=      5-min Rain = 0
KMD1 210037Z 19005KT 13/M00 A3016 RMK A01 T01261002  RH  041%=      5-min Rain = 0
KMD1 210038Z 19006KT 13/M00 A3016 RMK A01 T01261002  RH  041%=      5-min Rain = 0
KMD1 210039Z 19006KT 13/M00 A3016 RMK A01 T01251002  RH  042%=      5-min Rain = 0
KMD1 210040Z 19005KT 12/M00 A3016 RMK A01 T01241002  RH  042%=      5-min Rain = 0
KMD1 210041Z 19005KT 12/M00 A3017 RMK A01 T01241002  RH  042%=      5-min Rain = 0
KMD1 210042Z 19006KT 12/M00 A3017 RMK A01 T01231002  RH  042%=      5-min Rain = 0
KMD1 210043Z 19006KT 12/M00 A3017 RMK A01 T01231002  RH  042%=      5-min Rain = 0
KMD1 210044Z 19006KT 12/M00 A3017 RMK A01 T01221002  RH  042%=      5-min Rain = 0
KMD1 210045Z 19005KT 12/M00 A3017 RMK A01 T01221002  RH  042%=      5-min Rain = 0
KMD1 210046Z 19005KT 12/M00 A3017 RMK A01 T01211003  RH  042%=      5-min Rain = 0
KMD1 210047Z 19005KT 12/M00 A3016 RMK A01 T01221002  RH  042%=      5-min Rain = 0
KMD1 210048Z 19005KT 12/M00 A3016 RMK A01 T01211002  RH  043%=      5-min Rain = 0
KMD1 210049Z 20005KT 12/M00 A3016 RMK A01 T01201002  RH  043%=      5-min Rain = 0
KMD1 210050Z 20005KT 12/M00 A3016 RMK A01 T01201002  RH  043%=      5-min Rain = 0
KMD1 210051Z 20005KT 12/M00 A3016 RMK A01 T01181002  RH  043%=      5-min Rain = 0
KMD1 210052Z 20005KT 12/M00 A3017 RMK A01 T01181002  RH  044%=      5-min Rain = 0
KMD1 210053Z 20005KT 12/M00 A3017 RMK A01 T01171001  RH  044%=      5-min Rain = 0
KMD1 210054Z 20005KT 12/M00 A3017 RMK A01 T01171001  RH  044%=      5-min Rain = 0
KMD1 210055Z 20005KT 12/M00 A3017 RMK A01 T01171001  RH  044%=      5-min Rain = 0
KMD1 210056Z 20006KT 12/M00 A3017 RMK A01 T01161002  RH  044%=      5-min Rain = 0
KMD1 210057Z 20006KT 12/M00 A3017 RMK A01 T01151001  RH  045%=      5-min Rain = 0
KMD1 210058Z 20006KT 11/00 A3017 RMK A01 T011400-0  RH  045%=      5-min Rain = 0
KMD1 210059Z 20006KT 11/M00 A3017 RMK A01 T01131001  RH  045%=      5-min Rain = 0
KMD1 210100Z 20006KT 11/M00 A3017 RMK A01 T01131002  RH  045%=      5-min Rain = 0
KMD1 210101Z 20006KT 11/M00 A3017 RMK A01 T01131001  RH  045%=      5-min Rain = 0
KMD1 210102Z 20006KT 11/M00 A3017 RMK A01 T01121002  RH  045%=      5-min Rain = 0
KMD1 210103Z 19006KT 11/M00 A3017 RMK A01 T01111001  RH  046%=      5-min Rain = 0
KMD1 210104Z 19006KT 11/M00 A3017 RMK A01 T01101001  RH  046%=      5-min Rain = 0
KMD1 210105Z 19006KT 11/M00 A3017 RMK A01 T01101002  RH  046%=      5-min Rain = 0
KMD1 210106Z 20006KT 11/M00 A3017 RMK A01 T01091002  RH  046%=      5-min Rain = 0
KMD1 210107Z 19006KT 11/M00 A3017 RMK A01 T01091001  RH  047%=      5-min Rain = 0
KMD1 210108Z 19006KT 11/M00 A3017 RMK A01 T01081001  RH  047%=      5-min Rain = 0
KMD1 210109Z 19006KT 11/M00 A3017 RMK A01 T01081001  RH  047%=      5-min Rain = 0
KMD1 210110Z 19006KT 11/M00 A3017 RMK A01 T01081002  RH  047%=      5-min Rain = 0
KMD1 210111Z 19006KT 11/M00 A3017 RMK A01 T01071002  RH  047%=      5-min Rain = 0
KMD1 210112Z 19006KT 11/M00 A3017 RMK A01 T01071002  RH  047%=      5-min Rain = 0
KMD1 210113Z 19006KT 11/M00 A3017 RMK A01 T01071001  RH  047%=      5-min Rain = 0
KMD1 210114Z 19006KT 11/M00 A3017 RMK A01 T01061001  RH  047%=      5-min Rain = 0
KMD1 210115Z 19006KT 11/M00 A3017 RMK A01 T01061002  RH  047%=      5-min Rain = 0
KMD1 210116Z 19006KT 11/M00 A3017 RMK A01 T01061002  RH  047%=      5-min Rain = 0
KMD1 210117Z 19006KT 11/M00 A3017 RMK A01 T01051001  RH  048%=      5-min Rain = 0
KMD1 210118Z 19006KT 11/M00 A3017 RMK A01 T01051001  RH  048%=      5-min Rain = 0
KMD1 210119Z 19006KT 10/M00 A3017 RMK A01 T01041001  RH  048%=      5-min Rain = 0
KMD1 210120Z 20006KT 10/M00 A3017 RMK A01 T01041001  RH  048%=      5-min Rain = 0
KMD1 210121Z 19006KT 10/M00 A3017 RMK A01 T01031002  RH  048%=      5-min Rain = 0
KMD1 210122Z 19006KT 10/M00 A3017 RMK A01 T01031001  RH  048%=      5-min Rain = 0
KMD1 210123Z 20006KT 10/M00 A3017 RMK A01 T01021001  RH  049%=      5-min Rain = 0
KMD1 210124Z 20006KT 10/M00 A3017 RMK A01 T01011001  RH  049%=      5-min Rain = 0
KMD1 210125Z 20007KT 10/M00 A3016 RMK A01 T01011001  RH  049%=      5-min Rain = 0
KMD1 210126Z 19007KT 10/M00 A3016 RMK A01 T01001001  RH  049%=      5-min Rain = 0
KMD1 210127Z 19007KT 10/M00 A3016 RMK A01 T01011001  RH  049%=      5-min Rain = 0
KMD1 210128Z 19007KT 10/M00 A3016 RMK A01 T01001001  RH  049%=      5-min Rain = 0
KMD1 210129Z 19006KT 10/M00 A3016 RMK A01 T01001001  RH  049%=      5-min Rain = 0
KMD1 210130Z 19006KT 10/M00 A3016 RMK A01 T00991001  RH  050%=      5-min Rain = 0
KMD1 210131Z 20006KT 10/M00 A3016 RMK A01 T00981001  RH  050%=      5-min Rain = 0
KMD1 210132Z 19006KT 10/M00 A3016 RMK A01 T00991001  RH  050%=      5-min Rain = 0
KMD1 210133Z 20006KT 10/M00 A3016 RMK A01 T00991001  RH  050%=      5-min Rain = 0
KMD1 210134Z 19006KT 10/M00 A3016 RMK A01 T00981001  RH  050%=      5-min Rain = 0
KMD1 210135Z 20006KT 10/M00 A3017 RMK A01 T00981001  RH  050%=      5-min Rain = 0
KMD1 210136Z 20006KT 10/M00 A3017 RMK A01 T00971001  RH  051%=      5-min Rain = 0
KMD1 210137Z 20006KT 10/M00 A3017 RMK A01 T00961001  RH  051%=      5-min Rain = 0
KMD1 210138Z 20006KT 10/M00 A3017 RMK A01 T00951001  RH  051%=      5-min Rain = 0
KMD1 210139Z 20005KT 10/M00 A3017 RMK A01 T00951001  RH  051%=      5-min Rain = 0
KMD1 210140Z 20005KT 10/M00 A3017 RMK A01 T00951001  RH  051%=      5-min Rain = 0
KMD1 210141Z 20005KT 09/M00 A3017 RMK A01 T00941002  RH  051%=      5-min Rain = 0
KMD1 210142Z 20005KT 09/M00 A3017 RMK A01 T00941002  RH  051%=      5-min Rain = 0
KMD1 210143Z 20004KT 09/M00 A3017 RMK A01 T00941002  RH  051%=      5-min Rain = 0
KMD1 210144Z 20005KT 09/M00 A3017 RMK A01 T00931002  RH  051%=      5-min Rain = 0
KMD1 210145Z 21004KT 09/M00 A3017 RMK A01 T00931002  RH  052%=      5-min Rain = 0
KMD1 210146Z 21004KT 09/M00 A3017 RMK A01 T00931002  RH  052%=      5-min Rain = 0
KMD1 210147Z 20005KT 09/M00 A3017 RMK A01 T00921002  RH  052%=      5-min Rain = 0
KMD1 210148Z 20005KT 09/M00 A3017 RMK A01 T00931003  RH  051%=      5-min Rain = 0
KMD1 210149Z 20005KT 09/M00 A3017 RMK A01 T00921003  RH  051%=      5-min Rain = 0
KMD1 210150Z 20004KT 09/M00 A3017 RMK A01 T00921002  RH  052%=      5-min Rain = 0
KMD1 210151Z 20004KT 09/M00 A3017 RMK A01 T00921002  RH  051%=      5-min Rain = 0
KMD1 210152Z 20004KT 09/M00 A3017 RMK A01 T00921002  RH  052%=      5-min Rain = 0
KMD1 210153Z 20004KT 09/M00 A3017 RMK A01 T00921003  RH  052%=      5-min Rain = 0
KMD1 210154Z 20004KT 09/M00 A3017 RMK A01 T00921002  RH  052%=      5-min Rain = 0
KMD1 210155Z 19004KT 09/M00 A3017 RMK A01 T00921003  RH  052%=      5-min Rain = 0
KMD1 210156Z 19004KT 09/M00 A3017 RMK A01 T00921002  RH  052%=      5-min Rain = 0
KMD1 210157Z 19004KT 09/M00 A3017 RMK A01 T00921003  RH  052%=      5-min Rain = 0
KMD1 210158Z 19004KT 09/M00 A3017 RMK A01 T00911004  RH  051%=      5-min Rain = 0
KMD1 210159Z 19005KT 09/M00 A3017 RMK A01 T00911004  RH  051%=      5-min Rain = 0
KMD1 210200Z 18005KT 09/M00 A3017 RMK A01 T00911004  RH  052%=      5-min Rain = 0
KMD1 210201Z 18005KT 09/M00 A3017 RMK A01 T00901003  RH  052%=      5-min Rain = 0
KMD1 210202Z 19004KT 09/M00 A3017 RMK A01 T00891003  RH  052%=      5-min Rain = 0
KMD1 210203Z 19004KT 09/M00 A3017 RMK A01 T00891004  RH  052%=      5-min Rain = 0
KMD1 210204Z 19004KT 09/M00 A3017 RMK A01 T00891004  RH  052%=      5-min Rain = 0
KMD1 210205Z 19004KT 09/M00 A3017 RMK A01 T00891004  RH  052%=      5-min Rain = 0
KMD1 210206Z 20004KT 09/M00 A3017 RMK A01 T00891003  RH  052%=      5-min Rain = 0
KMD1 210207Z 20004KT 09/M00 A3017 RMK A01 T00901003  RH  052%=      5-min Rain = 0
KMD1 210208Z 19004KT 09/M00 A3017 RMK A01 T00911003  RH  052%=      5-min Rain = 0
KMD1 210209Z 20004KT 09/M00 A3017 RMK A01 T00911002  RH  052%=      5-min Rain = 0
KMD1 210210Z 20004KT 09/M00 A3017 RMK A01 T00901002  RH  052%=      5-min Rain = 0
KMD1 210211Z 20004KT 09/M00 A3017 RMK A01 T00901002  RH  053%=      5-min Rain = 0
KMD1 210212Z 20004KT 09/M00 A3017 RMK A01 T00901002  RH  052%=      5-min Rain = 0
KMD1 210213Z 20004KT 09/M00 A3017 RMK A01 T00901003  RH  052%=      5-min Rain = 0
KMD1 210214Z 20004KT 09/M00 A3017 RMK A01 T00901003  RH  052%=      5-min Rain = 0
KMD1 210215Z 20004KT 09/M00 A3017 RMK A01 T00891002  RH  053%=      5-min Rain = 0
KMD1 210216Z 20004KT 09/M00 A3017 RMK A01 T00891002  RH  053%=      5-min Rain = 0
KMD1 210217Z 21004KT 09/M00 A3017 RMK A01 T00881002  RH  053%=      5-min Rain = 0
KMD1 210218Z 21003KT 09/M00 A3017 RMK A01 T00881002  RH  053%=      5-min Rain = 0
KMD1 210219Z 21003KT 09/M00 A3018 RMK A01 T00881002  RH  053%=      5-min Rain = 0
KMD1 210220Z 21003KT 09/M00 A3018 RMK A01 T00871002  RH  053%=      5-min Rain = 0
KMD1 210221Z 21004KT 09/M00 A3018 RMK A01 T00861003  RH  054%=      5-min Rain = 0
KMD1 210222Z 20003KT 09/M00 A3018 RMK A01 T00851003  RH  054%=      5-min Rain = 0
KMD1 210223Z 22002KT 09/M00 A3018 RMK A01 T00851003  RH  054%=      5-min Rain = 0
KMD1 210224Z 21003KT 09/M00 A3018 RMK A01 T00851003  RH  054%=      5-min Rain = 0
KMD1 210225Z 20002KT 08/M00 A3018 RMK A01 T00841002  RH  054%=      5-min Rain = 0
KMD1 210226Z 21003KT 08/M00 A3018 RMK A01 T00841003  RH  054%=      5-min Rain = 0
KMD1 210227Z 20002KT 08/M00 A3017 RMK A01 T00841003  RH  054%=      5-min Rain = 0
KMD1 210228Z 21002KT 08/M00 A3017 RMK A01 T00841003  RH  054%=      5-min Rain = 0
KMD1 210229Z 22002KT 08/M00 A3017 RMK A01 T00841002  RH  055%=      5-min Rain = 0
KMD1 210230Z 22002KT 08/M00 A3017 RMK A01 T00831003  RH  054%=      5-min Rain = 0
KMD1 210231Z 21002KT 08/M00 A3017 RMK A01 T00831004  RH  054%=      5-min Rain = 0
KMD1 210232Z 22002KT 08/M00 A3017 RMK A01 T00821004  RH  055%=      5-min Rain = 0
KMD1 210233Z 23002KT 08/M00 A3017 RMK A01 T00811004  RH  055%=      5-min Rain = 0
KMD1 210234Z 23002KT 08/M00 A3017 RMK A01 T00801003  RH  056%=      5-min Rain = 0
KMD1 210235Z 23002KT 08/M00 A3017 RMK A01 T00801003  RH  056%=      5-min Rain = 0
KMD1 210236Z 24002KT 08/M00 A3017 RMK A01 T00791003  RH  056%=      5-min Rain = 0
KMD1 210237Z 23001KT 08/M00 A3017 RMK A01 T00791003  RH  056%=      5-min Rain = 0
KMD1 210238Z 23002KT 08/M00 A3017 RMK A01 T00791003  RH  056%=      5-min Rain = 0
KMD1 210239Z 23002KT 08/M00 A3017 RMK A01 T00791003  RH  056%=      5-min Rain = 0
KMD1 210240Z 21002KT 08/M00 A3017 RMK A01 T00791002  RH  057%=      5-min Rain = 0
KMD1 210241Z 22001KT 08/M00 A3017 RMK A01 T00781002  RH  057%=      5-min Rain = 0
KMD1 210242Z 23001KT 08/M00 A3017 RMK A01 T00781002  RH  057%=      5-min Rain = 0
KMD1 210243Z 23001KT 08/M00 A3017 RMK A01 T00781002  RH  057%=      5-min Rain = 0
KMD1 210244Z 23002KT 08/M00 A3017 RMK A01 T00781003  RH  057%=      5-min Rain = 0
KMD1 210245Z 22002KT 08/M00 A3017 RMK A01 T00781003  RH  057%=      5-min Rain = 0
KMD1 210246Z 22001KT 08/M00 A3017 RMK A01 T00781003  RH  056%=      5-min Rain = 0
KMD1 210247Z 24002KT 08/M00 A3017 RMK A01 T00791003  RH  056%=      5-min Rain = 0
KMD1 210248Z 23002KT 08/M00 A3017 RMK A01 T00791004  RH  056%=      5-min Rain = 0
KMD1 210249Z 24003KT 08/M00 A3017 RMK A01 T00801003  RH  055%=      5-min Rain = 0
KMD1 210250Z 23002KT 08/M00 A3017 RMK A01 T00811004  RH  055%=      5-min Rain = 0
KMD1 210251Z 24002KT 08/M00 A3017 RMK A01 T00811004  RH  055%=      5-min Rain = 0
KMD1 210252Z 24003KT 08/M00 A3017 RMK A01 T00821003  RH  055%=      5-min Rain = 0
KMD1 210253Z 22002KT 08/M00 A3017 RMK A01 T00811003  RH  055%=      5-min Rain = 0
KMD1 210254Z 23003KT 08/M00 A3017 RMK A01 T00811003  RH  055%=      5-min Rain = 0
KMD1 210255Z 23002KT 08/M00 A3017 RMK A01 T00811003  RH  055%=      5-min Rain = 0
KMD1 210256Z 23002KT 08/M00 A3017 RMK A01 T00811003  RH  055%=      5-min Rain = 0
KMD1 210257Z 22002KT 08/M00 A3017 RMK A01 T00801004  RH  056%=      5-min Rain = 0
KMD1 210258Z 21002KT 08/M00 A3017 RMK A01 T00791004  RH  056%=      5-min Rain = 0
KMD1 210259Z 21003KT 08/M00 A3017 RMK A01 T00791003  RH  056%=      5-min Rain = 0
KMD1 210300Z 20003KT 08/M00 A3017 RMK A01 T00791003  RH  056%=      5-min Rain = 0
KMD1 210301Z 20003KT 08/M00 A3017 RMK A01 T00801003  RH  056%=      5-min Rain = 0
KMD1 210302Z 20003KT 08/M00 A3017 RMK A01 T00801002  RH  056%=      5-min Rain = 0
KMD1 210303Z 19004KT 08/M00 A3017 RMK A01 T00801002  RH  056%=      5-min Rain = 0
KMD1 210304Z 20003KT 08/M00 A3017 RMK A01 T00821002  RH  055%=      5-min Rain = 0
KMD1 210305Z 21003KT 08/M00 A3017 RMK A01 T00821003  RH  055%=      5-min Rain = 0
KMD1 210306Z 20003KT 08/M00 A3017 RMK A01 T00831003  RH  055%=      5-min Rain = 0
KMD1 210307Z 21002KT 08/M00 A3017 RMK A01 T00831003  RH  055%=      5-min Rain = 0
KMD1 210308Z 22002KT 08/M00 A3017 RMK A01 T00821003  RH  055%=      5-min Rain = 0
KMD1 210309Z 21002KT 08/M00 A3017 RMK A01 T00811003  RH  056%=      5-min Rain = 0
KMD1 210310Z 22002KT 08/M00 A3017 RMK A01 T00801003  RH  056%=      5-min Rain = 0
KMD1 210311Z 21002KT 08/M00 A3017 RMK A01 T00791004  RH  056%=      5-min Rain = 0
KMD1 210312Z 20001KT 08/M00 A3017 RMK A01 T00791004  RH  056%=      5-min Rain = 0
KMD1 210313Z 19000KT 08/M00 A3017 RMK A01 T00791003  RH  056%=      5-min Rain = 0
KMD1 210314Z 19001KT 08/M00 A3017 RMK A01 T00781003  RH  056%=      5-min Rain = 0
KMD1 210315Z 19001KT 08/M00 A3017 RMK A01 T00781003  RH  056%=      5-min Rain = 0
KMD1 210316Z 18002KT 08/M00 A3016 RMK A01 T00781004  RH  056%=      5-min Rain = 0
KMD1 210317Z 18002KT 08/M00 A3016 RMK A01 T00781004  RH  056%=      5-min Rain = 0
KMD1 210318Z 19003KT 08/M00 A3016 RMK A01 T00771004  RH  056%=      5-min Rain = 0
KMD1 210319Z 18003KT 08/M00 A3017 RMK A01 T00771004  RH  056%=      5-min Rain = 0
KMD1 210320Z 19003KT 08/M00 A3017 RMK A01 T00791004  RH  056%=      5-min Rain = 0
KMD1 210321Z 18003KT 08/M00 A3017 RMK A01 T00811004  RH  055%=      5-min Rain = 0
KMD1 210322Z 18002KT 08/M00 A3017 RMK A01 T00811004  RH  055%=      5-min Rain = 0
KMD1 210323Z 18002KT 08/M00 A3016 RMK A01 T00821004  RH  055%=      5-min Rain = 0
KMD1 210324Z 18003KT 08/M00 A3017 RMK A01 T00821004  RH  055%=      5-min Rain = 0
KMD1 210325Z 17004KT 08/M00 A3017 RMK A01 T00811004  RH  055%=      5-min Rain = 0
KMD1 210326Z 18003KT 08/M01 A3016 RMK A01 T00821005  RH  054%=      5-min Rain = 0
KMD1 210327Z 18003KT 08/M01 A3016 RMK A01 T00821005  RH  054%=      5-min Rain = 0
KMD1 210328Z 17002KT 08/M01 A3016 RMK A01 T00821005  RH  054%=      5-min Rain = 0
KMD1 210329Z 17003KT 08/M00 A3016 RMK A01 T00821004  RH  055%=      5-min Rain = 0
KMD1 210330Z 17004KT 08/M01 A3016 RMK A01 T00811005  RH  055%=      5-min Rain = 0
KMD1 210331Z 18003KT 08/M01 A3016 RMK A01 T00811005  RH  055%=      5-min Rain = 0
KMD1 210332Z 17002KT 08/M01 A3016 RMK A01 T00811005  RH  054%=      5-min Rain = 0
KMD1 210333Z 17003KT 08/M01 A3016 RMK A01 T00821005  RH  054%=      5-min Rain = 0
KMD1 210334Z 18002KT 08/M01 A3016 RMK A01 T00831006  RH  053%=      5-min Rain = 0
KMD1 210335Z 19002KT 08/M01 A3016 RMK A01 T00841005  RH  053%=      5-min Rain = 0
KMD1 210336Z 19003KT 08/M01 A3016 RMK A01 T00841005  RH  054%=      5-min Rain = 0
KMD1 210337Z 21003KT 08/M01 A3016 RMK A01 T00831005  RH  054%=      5-min Rain = 0
KMD1 210338Z 19002KT 08/M01 A3016 RMK A01 T00831005  RH  054%=      5-min Rain = 0
KMD1 210339Z 19002KT 08/M00 A3016 RMK A01 T00831004  RH  054%=      5-min Rain = 0
KMD1 210340Z 19002KT 08/M01 A3016 RMK A01 T00831005  RH  054%=      5-min Rain = 0
KMD1 210341Z 20002KT 08/M01 A3016 RMK A01 T00831006  RH  054%=      5-min Rain = 0
KMD1 210342Z 21002KT 08/M01 A3016 RMK A01 T00841005  RH  054%=      5-min Rain = 0
KMD1 210343Z 21002KT 08/M01 A3016 RMK A01 T00841005  RH  054%=      5-min Rain = 0
KMD1 210344Z 21002KT 08/M01 A3016 RMK A01 T00831005  RH  054%=      5-min Rain = 0
KMD1 210345Z 20002KT 08/M01 A3016 RMK A01 T00831005  RH  054%=      5-min Rain = 0
KMD1 210346Z 21002KT 08/M01 A3016 RMK A01 T00821005  RH  054%=      5-min Rain = 0
KMD1 210347Z 21002KT 08/M01 A3016 RMK A01 T00821005  RH  054%=      5-min Rain = 0
KMD1 210348Z 19001KT 08/M01 A3016 RMK A01 T00811005  RH  055%=      5-min Rain = 0
KMD1 210349Z 20001KT 08/M01 A3016 RMK A01 T00801005  RH  055%=      5-min Rain = 0
KMD1 210350Z 21001KT 08/M01 A3016 RMK A01 T00801005  RH  055%=      5-min Rain = 0
KMD1 210351Z 20002KT 08/M01 A3016 RMK A01 T00801005  RH  055%=      5-min Rain = 0
KMD1 210352Z 19002KT 08/M01 A3016 RMK A01 T00801005  RH  055%=      5-min Rain = 0
KMD1 210353Z 21002KT 08/M01 A3016 RMK A01 T00801005  RH  055%=      5-min Rain = 0
KMD1 210354Z 21002KT 08/M01 A3016 RMK A01 T00801006  RH  055%=      5-min Rain = 0
KMD1 210355Z 22003KT 08/M01 A3016 RMK A01 T00801005  RH  055%=      5-min Rain = 0
KMD1 210356Z 22003KT 08/M01 A3016 RMK A01 T00801006  RH  055%=      5-min Rain = 0
KMD1 210357Z 22002KT 08/M01 A3016 RMK A01 T00801006  RH  055%=      5-min Rain = 0
KMD1 210358Z 21002KT 08/M01 A3016 RMK A01 T00801006  RH  054%=      5-min Rain = 0
KMD1 210359Z 22002KT 08/M01 A3016 RMK A01 T00801005  RH  055%=      5-min Rain = 0
KMD1 210400Z 22003KT 08/M01 A3015 RMK A01 T00801005  RH  055%=      5-min Rain = 0
KMD1 210401Z 23002KT 08/M01 A3015 RMK A01 T00791006  RH  055%=      5-min Rain = 0
KMD1 210402Z 23003KT 08/M01 A3015 RMK A01 T00791005  RH  055%=      5-min Rain = 0
KMD1 210403Z 23003KT 08/M01 A3015 RMK A01 T00791005  RH  055%=      5-min Rain = 0
KMD1 210404Z 22003KT 08/M00 A3015 RMK A01 T00781004  RH  056%=      5-min Rain = 0
KMD1 210405Z 23004KT 08/M00 A3015 RMK A01 T00771004  RH  056%=      5-min Rain = 0
KMD1 210406Z 23004KT 08/M01 A3015 RMK A01 T00761006  RH  056%=      5-min Rain = 0
KMD1 210407Z 23004KT 08/M01 A3015 RMK A01 T00771005  RH  056%=      5-min Rain = 0
KMD1 210408Z 23004KT 08/M01 A3015 RMK A01 T00771005  RH  056%=      5-min Rain = 0
KMD1 210409Z 23004KT 08/M00 A3015 RMK A01 T00761004  RH  057%=      5-min Rain = 0
KMD1 210410Z 24004KT 08/M01 A3015 RMK A01 T00761005  RH  057%=      5-min Rain = 0
KMD1 210411Z 23004KT 08/M01 A3015 RMK A01 T00761005  RH  057%=      5-min Rain = 0
KMD1 210412Z 23005KT 08/M01 A3015 RMK A01 T00761005  RH  056%=      5-min Rain = 0
KMD1 210413Z 22004KT 08/M01 A3015 RMK A01 T00751005  RH  057%=      5-min Rain = 0
KMD1 210414Z 22005KT 08/M01 A3015 RMK A01 T00751005  RH  057%=      5-min Rain = 0
KMD1 210415Z 22006KT 08/M01 A3015 RMK A01 T00751006  RH  057%=      5-min Rain = 0
KMD1 210416Z 22005KT 08/M01 A3015 RMK A01 T00751005  RH  057%=      5-min Rain = 0
KMD1 210417Z 22005KT 08/M01 A3015 RMK A01 T00751006  RH  056%=      5-min Rain = 0
KMD1 210418Z 23005KT 08/M01 A3015 RMK A01 T00751005  RH  057%=      5-min Rain = 0
KMD1 210419Z 23005KT 07/M01 A3014 RMK A01 T00741005  RH  057%=      5-min Rain = 0
KMD1 210420Z 22004KT 07/M01 A3015 RMK A01 T00741005  RH  057%=      5-min Rain = 0
KMD1 210421Z 22005KT 07/M01 A3015 RMK A01 T00731005  RH  057%=      5-min Rain = 0
KMD1 210422Z 22005KT 07/M01 A3015 RMK A01 T00731005  RH  058%=      5-min Rain = 0
KMD1 210423Z 23004KT 07/M01 A3015 RMK A01 T00721006  RH  058%=      5-min Rain = 0
KMD1 210424Z 22004KT 07/M01 A3014 RMK A01 T00721006  RH  058%=      5-min Rain = 0
KMD1 210425Z 23004KT 07/M01 A3014 RMK A01 T00721005  RH  058%=      5-min Rain = 0
KMD1 210426Z 22005KT 07/M01 A3014 RMK A01 T00711005  RH  058%=      5-min Rain = 0
KMD1 210427Z 22004KT 07/M01 A3014 RMK A01 T00701005  RH  059%=      5-min Rain = 0
KMD1 210428Z 23004KT 07/M01 A3014 RMK A01 T00701006  RH  058%=      5-min Rain = 0
KMD1 210429Z 22003KT 07/M01 A3014 RMK A01 T00701005  RH  059%=      5-min Rain = 0
KMD1 210430Z 22004KT 07/M01 A3014 RMK A01 T00691005  RH  059%=      5-min Rain = 0
KMD1 210431Z 22004KT 07/M01 A3014 RMK A01 T00691006  RH  059%=      5-min Rain = 0
KMD1 210432Z 22003KT 07/M01 A3014 RMK A01 T00691006  RH  059%=      5-min Rain = 0
KMD1 210433Z 21003KT 07/M01 A3014 RMK A01 T00691006  RH  059%=      5-min Rain = 0
KMD1 210434Z 21004KT 07/M01 A3014 RMK A01 T00691006  RH  059%=      5-min Rain = 0
KMD1 210435Z 21004KT 07/M01 A3014 RMK A01 T00691006  RH  059%=      5-min Rain = 0
KMD1 210436Z 21004KT 07/M01 A3013 RMK A01 T00691006  RH  059%=      5-min Rain = 0
KMD1 210437Z 21003KT 07/M01 A3014 RMK A01 T00701006  RH  059%=      5-min Rain = 0
KMD1 210438Z 21003KT 07/M01 A3014 RMK A01 T00701006  RH  059%=      5-min Rain = 0
KMD1 210439Z 22004KT 07/M01 A3014 RMK A01 T00701006  RH  059%=      5-min Rain = 0
KMD1 210440Z 21004KT 07/M01 A3014 RMK A01 T00691006  RH  059%=      5-min Rain = 0
KMD1 210441Z 22003KT 07/M01 A3014 RMK A01 T00691006  RH  059%=      5-min Rain = 0
KMD1 210442Z 21003KT 07/M01 A3014 RMK A01 T00701006  RH  059%=      5-min Rain = 0
KMD1 210443Z 22003KT 07/M01 A3014 RMK A01 T00701006  RH  059%=      5-min Rain = 0
KMD1 210444Z 22003KT 07/M01 A3014 RMK A01 T00701006  RH  059%=      5-min Rain = 0
KMD1 210445Z 23003KT 07/M01 A3014 RMK A01 T00691006  RH  059%=      5-min Rain = 0
KMD1 210446Z 23002KT 07/M01 A3014 RMK A01 T00701006  RH  059%=      5-min Rain = 0
KMD1 210447Z 24003KT 07/M01 A3014 RMK A01 T00701006  RH  059%=      5-min Rain = 0
KMD1 210448Z 23004KT 07/M01 A3014 RMK A01 T00701006  RH  059%=      5-min Rain = 0
KMD1 210449Z 23003KT 07/M01 A3014 RMK A01 T00701006  RH  059%=      5-min Rain = 0
KMD1 210450Z 24004KT 07/M01 A3014 RMK A01 T00711006  RH  058%=      5-min Rain = 0
KMD1 210451Z 23003KT 07/M01 A3014 RMK A01 T00721005  RH  058%=      5-min Rain = 0
KMD1 210452Z 24003KT 07/M01 A3014 RMK A01 T00711006  RH  058%=      5-min Rain = 0
KMD1 210453Z 23004KT 07/M01 A3014 RMK A01 T00711005  RH  059%=      5-min Rain = 0
KMD1 210454Z 22004KT 07/M01 A3014 RMK A01 T00711005  RH  059%=      5-min Rain = 0
KMD1 210455Z 23004KT 07/M01 A3014 RMK A01 T00701005  RH  059%=      5-min Rain = 0
KMD1 210456Z 21004KT 07/M00 A3014 RMK A01 T00701004  RH  059%=      5-min Rain = 0
KMD1 210457Z 21005KT 07/M01 A3014 RMK A01 T00701005  RH  059%=      5-min Rain = 0
KMD1 210458Z 21004KT 07/M01 A3014 RMK A01 T00701005  RH  059%=      5-min Rain = 0
KMD1 210459Z 22005KT 07/M01 A3013 RMK A01 T00701005  RH  059%=      5-min Rain = 0
KMD1 210500Z 22004KT 07/M01 A3013 RMK A01 T00711005  RH  058%=      5-min Rain = 0
KMD1 210501Z 23005KT 07/M01 A3013 RMK A01 T00711005  RH  058%=      5-min Rain = 0
KMD1 210502Z 22004KT 07/M01 A3013 RMK A01 T00711006  RH  058%=      5-min Rain = 0
KMD1 210503Z 22004KT 07/M01 A3013 RMK A01 T00721005  RH  058%=      5-min Rain = 0
KMD1 210504Z 22005KT 07/M01 A3013 RMK A01 T00711005  RH  058%=      5-min Rain = 0
KMD1 210505Z 22005KT 07/M01 A3013 RMK A01 T00711005  RH  058%=      5-min Rain = 0
KMD1 210506Z 22005KT 07/M01 A3013 RMK A01 T00711006  RH  058%=      5-min Rain = 0
KMD1 210507Z 22005KT 07/M01 A3013 RMK A01 T00711005  RH  058%=      5-min Rain = 0
KMD1 210508Z 22005KT 07/M01 A3013 RMK A01 T00721006  RH  057%=      5-min Rain = 0
KMD1 210509Z 22005KT 07/M01 A3014 RMK A01 T00731006  RH  057%=      5-min Rain = 0
KMD1 210510Z 23005KT 07/M01 A3014 RMK A01 T00731006  RH  057%=      5-min Rain = 0
KMD1 210511Z 22005KT 07/M01 A3014 RMK A01 T00731007  RH  057%=      5-min Rain = 0
KMD1 210512Z 22006KT 07/M01 A3014 RMK A01 T00741006  RH  057%=      5-min Rain = 0
KMD1 210513Z 22006KT 07/M01 A3013 RMK A01 T00741006  RH  057%=      5-min Rain = 0
KMD1 210514Z 21006KT 07/M01 A3013 RMK A01 T00741006  RH  057%=      5-min Rain = 0
KMD1 210515Z 21007KT 07/M01 A3013 RMK A01 T00741007  RH  056%=      5-min Rain = 0
KMD1 210516Z 21005KT 08/M01 A3013 RMK A01 T00751008  RH  056%=      5-min Rain = 0
KMD1 210517Z 22005KT 08/M01 A3013 RMK A01 T00761007  RH  056%=      5-min Rain = 0
KMD1 210518Z 21005KT 08/M01 A3013 RMK A01 T00751007  RH  056%=      5-min Rain = 0
KMD1 210519Z 22006KT 07/M01 A3013 RMK A01 T00741007  RH  056%=      5-min Rain = 0
KMD1 210520Z 22006KT 07/M01 A3013 RMK A01 T00741007  RH  056%=      5-min Rain = 0
KMD1 210521Z 22006KT 07/M01 A3013 RMK A01 T00741007  RH  056%=      5-min Rain = 0
KMD1 210522Z 21005KT 07/M01 A3013 RMK A01 T00731007  RH  057%=      5-min Rain = 0
KMD1 210523Z 21005KT 07/M01 A3013 RMK A01 T00731007  RH  057%=      5-min Rain = 0
KMD1 210524Z 21005KT 07/M01 A3013 RMK A01 T00721007  RH  057%=      5-min Rain = 0
KMD1 210525Z 21005KT 07/M01 A3013 RMK A01 T00721008  RH  057%=      5-min Rain = 0
KMD1 210526Z 21005KT 07/M01 A3013 RMK A01 T00731008  RH  056%=      5-min Rain = 0
KMD1 210527Z 22004KT 07/M01 A3013 RMK A01 T00731008  RH  056%=      5-min Rain = 0
KMD1 210528Z 23004KT 07/M01 A3013 RMK A01 T00731007  RH  057%=      5-min Rain = 0
KMD1 210529Z 22005KT 07/M01 A3013 RMK A01 T00721007  RH  057%=      5-min Rain = 0
KMD1 210530Z 22005KT 07/M01 A3013 RMK A01 T00721007  RH  057%=      5-min Rain = 0
KMD1 210531Z 23005KT 07/M01 A3013 RMK A01 T00721007  RH  057%=      5-min Rain = 0
KMD1 210532Z 21005KT 07/M01 A3013 RMK A01 T00721008  RH  057%=      5-min Rain = 0
KMD1 210533Z 23005KT 07/M01 A3013 RMK A01 T00721008  RH  057%=      5-min Rain = 0
KMD1 210534Z 23006KT 07/M01 A3013 RMK A01 T00731009  RH  056%=      5-min Rain = 0
KMD1 210535Z 23005KT 07/M01 A3013 RMK A01 T00731008  RH  056%=      5-min Rain = 0
KMD1 210536Z 23004KT 07/M01 A3013 RMK A01 T00731008  RH  057%=      5-min Rain = 0
KMD1 210537Z 22004KT 07/M01 A3013 RMK A01 T00721009  RH  056%=      5-min Rain = 0
KMD1 210538Z 23005KT 07/M01 A3013 RMK A01 T00731008  RH  056%=      5-min Rain = 0
KMD1 210539Z 23004KT 07/M01 A3013 RMK A01 T00731009  RH  056%=      5-min Rain = 0
KMD1 210540Z 22003KT 07/M01 A3013 RMK A01 T00731009  RH  056%=      5-min Rain = 0
KMD1 210541Z 22003KT 07/M01 A3013 RMK A01 T00731009  RH  056%=      5-min Rain = 0
KMD1 210542Z 23004KT 07/M01 A3013 RMK A01 T00721009  RH  056%=      5-min Rain = 0
KMD1 210543Z 22004KT 07/M01 A3013 RMK A01 T00721009  RH  056%=      5-min Rain = 0
KMD1 210544Z 21006KT 07/M01 A3013 RMK A01 T00731009  RH  056%=      5-min Rain = 0
KMD1 210545Z 22004KT 07/M01 A3013 RMK A01 T00731009  RH  056%=      5-min Rain = 0
KMD1 210546Z 22004KT 07/M01 A3014 RMK A01 T00721009  RH  056%=      5-min Rain = 0
KMD1 210547Z 21006KT 07/M01 A3013 RMK A01 T00721010  RH  056%=      5-min Rain = 0
KMD1 210548Z 22005KT 07/M01 A3013 RMK A01 T00731010  RH  056%=      5-min Rain = 0
KMD1 210549Z 21006KT 07/M01 A3013 RMK A01 T00731010  RH  056%=      5-min Rain = 0
KMD1 210550Z 21005KT 07/M01 A3013 RMK A01 T00731009  RH  056%=      5-min Rain = 0
KMD1 210551Z 22005KT 07/M01 A3013 RMK A01 T00731009  RH  056%=      5-min Rain = 0
KMD1 210552Z 21005KT 07/M01 A3013 RMK A01 T00721009  RH  057%=      5-min Rain = 0
KMD1 210553Z 22005KT 07/M01 A3013 RMK A01 T00711009  RH  057%=      5-min Rain = 0
KMD1 210554Z 21006KT 07/M01 A3013 RMK A01 T00701009  RH  057%=      5-min Rain = 0
KMD1 210555Z 21005KT 07/M01 A3013 RMK A01 T00701009  RH  057%=      5-min Rain = 0
KMD1 210556Z 22006KT 07/M01 A3013 RMK A01 T00701008  RH  057%=      5-min Rain = 0
KMD1 210557Z 21005KT 07/M01 A3013 RMK A01 T00701010  RH  057%=      5-min Rain = 0
KMD1 210558Z 21006KT 07/M01 A3013 RMK A01 T00711010  RH  056%=      5-min Rain = 0
KMD1 210559Z 21008KT 07/M01 A3013 RMK A01 T00711010  RH  056%=      5-min Rain = 0

Page generated in 0.1207 seconds.